BA548 / G-EUXI 7700 Squawk Report (14th of October, 2019)

Aircraft A321 Reg No. G-EUXI Age 14 years old
Model A321 Jet engines 2 First flight 26-07-05
Registered 05-08-05 Rollout 07-05 Delivered 05-08-05
Construction No. 2536 Line No. N/A Series 231
ADSHEX 400CEB Airline name British Airways Owner N/A
Airfield based Heathrow~Gtr London~G First tracked 2017-07-14 08:27:00

Flight history for G-EUXI

Route Flight No Date Playback
Stuttgart (STR) - Heathrow (LHR) BA919 2019-11-21 20:23:00
Heathrow (LHR) - Stuttgart (STR) BA920 2019-11-21 17:37:00
Barajas (MAD) - Heathrow (LHR) BA457 2019-11-21 11:53:00
Heathrow (LHR) - Barajas (MAD) BA456 2019-11-21 09:59:00
Edinburgh (EDI) - Heathrow (LHR) BA1465 2019-11-20 21:42:00
Heathrow (LHR) - Edinburgh (EDI) BA1458 2019-11-20 20:31:00
Copenhagen Airport (CPH) - Heathrow (LHR) BA815 2019-11-20 13:46:00
Heathrow (LHR) - Copenhagen Airport (CPH) BA814 2019-11-20 10:42:00
Schiphol (AMS) - Heathrow (LHR) BA423 2019-11-20 08:58:00
Heathrow (LHR) - Schiphol (AMS) BA444 2019-11-20 06:45:00
Glasgow (GLA) - Heathrow (LHR) BA1493 2019-11-19 19:35:00
Heathrow (LHR) - Glasgow (GLA) BA1486 2019-11-19 17:26:00
Manchester (MAN) - Heathrow (LHR) BA1395 2019-11-19 15:14:00
Heathrow (LHR) - Manchester (MAN) BA1390 2019-11-19 12:48:00
Munich Airport (MUC) - Heathrow (LHR) BA947 2019-11-19 10:53:00
Heathrow (LHR) - Munich Airport (MUC) BA958 2019-11-18 21:34:00
Glasgow (GLA) - Heathrow (LHR) BA1493 2019-11-18 18:24:00
Heathrow (LHR) - Glasgow (GLA) BA1486 2019-11-18 17:21:00
Dublin (DUB) - Heathrow (LHR) BA845 2019-11-18 11:46:00
Heathrow (LHR) - Dublin (DUB) BA830 2019-11-18 09:24:00
Time Lat Lon Altitude Heading Speed Vertical Rate
2019-10-14 09:34:30 GMT 51.471313 -0.486256 0 270 0 0
2019-10-14 09:34:24 GMT 51.471313 -0.486219 0 270 0 0
2019-10-14 09:34:13 GMT 51.471333 -0.486202 0 270 0 0
2019-10-14 09:34:10 GMT 51.471336 -0.486182 0 270 1 0
2019-10-14 09:33:59 GMT 51.471344 -0.485992 0 270 4 0
2019-10-14 09:33:48 GMT 51.471348 -0.485681 0 267 5 0
2019-10-14 09:33:36 GMT 51.471344 -0.485249 0 258 6 0
2019-10-14 09:33:27 GMT 51.471344 -0.484848 0 191 6 0
2019-10-14 09:33:24 GMT 51.471405 -0.484753 0 191 6 0
2019-10-14 09:33:17 GMT 51.471611 -0.484735 0 177 9 0
2019-10-14 09:33:14 GMT 51.471771 -0.484735 0 180 10 0
2019-10-14 09:33:04 GMT 51.472298 -0.484734 0 180 14 0
2019-10-14 09:32:58 GMT 51.472675 -0.484753 0 180 14 0
2019-10-14 09:32:52 GMT 51.473030 -0.484735 0 180 15 0
2019-10-14 09:32:47 GMT 51.473385 -0.484735 0 180 15 0
2019-10-14 09:32:37 GMT 51.474018 -0.484753 0 180 14 0
2019-10-14 09:32:34 GMT 51.474205 -0.484753 0 180 13 0
2019-10-14 09:32:31 GMT 51.474380 -0.484753 0 180 13 0
2019-10-14 09:32:24 GMT 51.474766 -0.484753 0 180 12 0
2019-10-14 09:32:21 GMT 51.474907 -0.484753 0 180 12 0
2019-10-14 09:32:11 GMT 51.475441 -0.484753 0 188 11 0
2019-10-14 09:32:00 GMT 51.475788 -0.484271 0 255 11 0
2019-10-14 09:31:50 GMT 51.475800 -0.483306 0 270 15 0
2019-10-14 09:31:39 GMT 51.475800 -0.481777 0 270 21 0
2019-10-14 09:31:26 GMT 51.475811 -0.480003 0 270 19 0
2019-10-14 09:31:18 GMT 51.475811 -0.478815 0 270 20 0
2019-10-14 09:31:07 GMT 51.475822 -0.477200 0 270 20 0
2019-10-14 09:30:56 GMT 51.475822 -0.475578 0 270 19 0
2019-10-14 09:30:45 GMT 51.475834 -0.474231 0 270 17 0
2019-10-14 09:30:34 GMT 51.475834 -0.473003 0 270 15 0
2019-10-14 09:30:23 GMT 51.475834 -0.471855 0 270 14 0
2019-10-14 09:30:13 GMT 51.475834 -0.470905 0 270 12 0
2019-10-14 09:30:02 GMT 51.475834 -0.470074 0 272 11 0
2019-10-14 09:29:52 GMT 51.475605 -0.469461 0 323 11 0
2019-10-14 09:29:42 GMT 51.475147 -0.469170 0 323 11 0
2019-10-14 09:29:36 GMT 51.474960 -0.468750 0 281 12 0
2019-10-14 09:29:31 GMT 51.474960 -0.468388 0 270 12 0
2019-10-14 09:29:21 GMT 51.475010 -0.467548 0 247 11 0
2019-10-14 09:29:11 GMT 51.475159 -0.466652 0 270 13 0
2019-10-14 09:28:54 GMT 51.475170 -0.464692 0 270 20 0
2019-10-14 09:28:46 GMT 51.475170 -0.463524 0 270 19 0
2019-10-14 09:28:36 GMT 51.475182 -0.462187 0 270 18 0
2019-10-14 09:28:29 GMT 51.475182 -0.461314 0 270 16 0
2019-10-14 09:28:19 GMT 51.475185 -0.460205 0 270 14 0
2019-10-14 09:28:08 GMT 51.475182 -0.459180 0 270 13 0
2019-10-14 09:27:54 GMT 51.475170 -0.457973 0 275 11 0
2019-10-14 09:27:49 GMT 51.475147 -0.457659 0 278 10 0
2019-10-14 09:27:36 GMT 51.475067 -0.456886 0 270 8 0
2019-10-14 09:24:03 GMT 51.475079 -0.455896 0 270 7 0
2019-10-14 09:24:03 GMT 51.475079 -0.455896 0 267 6 0
2019-10-14 09:24:03 GMT 51.475079 -0.455896 0 267 4 0
2019-10-14 09:23:54 GMT 51.475079 -0.455685 0 267 10 0
2019-10-14 09:23:47 GMT 51.475090 -0.455209 0 264 12 0
2019-10-14 09:23:35 GMT 51.475533 -0.454655 0 180 14 0
2019-10-14 09:23:24 GMT 51.476212 -0.454671 0 180 14 0
2019-10-14 09:23:17 GMT 51.476639 -0.454674 0 180 14 0
2019-10-14 09:23:06 GMT 51.477360 -0.454845 0 146 15 0
2019-10-14 09:22:51 GMT 51.477596 -0.461500 0 90 66 0
2019-10-14 09:22:45 GMT 51.477596 -0.461500 0 90 120 0
2019-10-14 09:22:35 GMT 51.477585 -0.469090 0 90 125 0
2019-10-14 09:22:23 GMT 51.477512 -0.481949 200 90 143 -384
2019-10-14 09:22:14 GMT 51.477512 -0.490723 300 89 140 -576
2019-10-14 09:22:09 GMT 51.477493 -0.495869 425 89 140 -832
2019-10-14 09:22:06 GMT 51.477448 -0.499581 400 89 140 -832
2019-10-14 09:22:03 GMT 51.477448 -0.503367 450 89 140 -640
2019-10-14 09:21:56 GMT 51.477417 -0.513077 575 89 141 -768
2019-10-14 09:21:53 GMT 51.477417 -0.513077 575 90 141 -768
2019-10-14 09:21:46 GMT 51.477402 -0.520366 675 89 141 -704
2019-10-14 09:21:42 GMT 51.477402 -0.524152 700 89 141 -704
2019-10-14 09:21:37 GMT 51.477356 -0.529571 775 89 142 -832
2019-10-14 09:21:34 GMT 51.477310 -0.533357 825 89 141 -704
2019-10-14 09:21:31 GMT 51.477325 -0.536041 900 89 142 -768
2019-10-14 09:21:26 GMT 51.477325 -0.541077 925 90 141 -640
2019-10-14 09:21:23 GMT 51.477310 -0.545085 975 89 141 -768
2019-10-14 09:21:20 GMT 51.477280 -0.546951 975 89 142 -768
2019-10-14 09:21:16 GMT 51.477264 -0.552583 1,050 89 142 -704
2019-10-14 09:21:13 GMT 51.477234 -0.554886 1,075 89 142 -704
2019-10-14 09:21:10 GMT 51.477219 -0.558076 1,325 90 142 -704
2019-10-14 09:21:05 GMT 51.477219 -0.562678 1,225 89 142 -768
2019-10-14 09:21:02 GMT 51.477184 -0.566635 1,225 89 142 -704
2019-10-14 09:20:57 GMT 51.477173 -0.571883 1,300 90 142 -768
2019-10-14 09:20:54 GMT 51.477173 -0.574852 1,300 90 142 -704
2019-10-14 09:20:51 GMT 51.477139 -0.578003 1,350 90 142 -768
2019-10-14 09:20:48 GMT 51.477127 -0.581533 1,400 89 142 -768
2019-10-14 09:20:45 GMT 51.477139 -0.585098 1,425 89 142 -768
2019-10-14 09:20:41 GMT 51.477081 -0.592445 1,575 89 142 -768
2019-10-14 09:20:37 GMT 51.477081 -0.592445 1,525 89 142 -768
2019-10-14 09:20:34 GMT 51.477093 -0.595627 1,575 89 142 -768
2019-10-14 09:20:31 GMT 51.477081 -0.599200 1,700 89 144 -832
2019-10-14 09:20:28 GMT 51.477047 -0.602341 1,650 89 143 -768
2019-10-14 09:20:24 GMT 51.477047 -0.606613 1,700 89 144 -832
2019-10-14 09:20:21 GMT 51.477047 -0.609589 2,000 89 146 -896
2019-10-14 09:20:17 GMT 51.476990 -0.613676 1,775 89 144 -768
2019-10-14 09:20:14 GMT 51.476997 -0.618210 1,850 89 146 -960
2019-10-14 09:20:10 GMT 51.476944 -0.621470 1,900 89 145 -896
2019-10-14 09:20:07 GMT 51.476952 -0.625076 1,950 89 143 -768
2019-10-14 09:20:04 GMT 51.476944 -0.627408 1,975 89 142 -640
2019-10-14 09:20:01 GMT 51.476898 -0.631565 2,025 89 138 -384
2019-10-14 09:19:57 GMT 51.476906 -0.634613 2,025 89 140 -640
2019-10-14 09:19:54 GMT 51.476906 -0.638351 2,075 89 140 -768
2019-10-14 09:19:51 GMT 51.476860 -0.641708 2,150 89 141 -768
2019-10-14 09:19:47 GMT 51.476852 -0.645224 2,175 89 141 -768
2019-10-14 09:19:44 GMT 51.476814 -0.653000 2,275 89 141 -768
2019-10-14 09:19:40 GMT 51.476814 -0.653000 2,275 89 141 -832
2019-10-14 09:19:37 GMT 51.476807 -0.655691 2,300 89 141 -768
2019-10-14 09:19:34 GMT 51.476814 -0.658417 2,400 89 143 -768
2019-10-14 09:19:31 GMT 51.476761 -0.663188 2,400 89 142 -832
2019-10-14 09:19:28 GMT 51.476761 -0.664896 2,625 89 147 -704
2019-10-14 09:19:25 GMT 51.476715 -0.667791 2,450 89 142 -768
2019-10-14 09:19:22 GMT 51.476715 -0.672022 2,525 89 151 0
2019-10-14 09:19:19 GMT 51.476669 -0.674546 2,525 89 143 -768
2019-10-14 09:19:16 GMT 51.476673 -0.678177 2,575 89 144 -768
2019-10-14 09:19:13 GMT 51.476673 -0.681152 2,650 89 146 -832
2019-10-14 09:19:10 GMT 51.476669 -0.684790 2,675 89 145 -832
2019-10-14 09:19:06 GMT 51.476624 -0.688650 2,725 89 146 -832
2019-10-14 09:19:03 GMT 51.476627 -0.691910 2,750 89 146 -832
2019-10-14 09:19:00 GMT 51.476582 -0.695343 2,850 89 147 -768
2019-10-14 09:18:57 GMT 51.476582 -0.697937 2,850 89 147 -768
2019-10-14 09:18:54 GMT 51.476578 -0.701195 2,900 89 147 -768
2019-10-14 09:18:51 GMT 51.476536 -0.705795 2,925 89 148 -768
2019-10-14 09:18:47 GMT 51.476536 -0.709763 2,975 89 149 -768
2019-10-14 09:18:44 GMT 51.476486 -0.713517 3,000 89 151 -832
2019-10-14 09:18:41 GMT 51.476486 -0.715485 3,300 89 150 -768
2019-10-14 09:18:38 GMT 51.476486 -0.718788 3,075 89 151 -832
2019-10-14 09:18:35 GMT 51.476486 -0.722796 3,225 89 151 -832
2019-10-14 09:18:31 GMT 51.476440 -0.726805 3,300 89 151 -832
2019-10-14 09:18:27 GMT 51.476395 -0.733040 3,250 89 151 -768
2019-10-14 09:18:24 GMT 51.476395 -0.734822 3,275 89 151 -832
2019-10-14 09:18:20 GMT 51.476349 -0.740167 3,350 89 150 -768
2019-10-14 09:18:17 GMT 51.476349 -0.742839 3,400 89 150 -768
2019-10-14 09:18:14 GMT 51.476303 -0.745957 3,400 89 150 -768
2019-10-14 09:18:11 GMT 51.476299 -0.749741 3,450 89 150 -768
2019-10-14 09:18:08 GMT 51.476299 -0.752411 3,475 89 150 -832
2019-10-14 09:18:05 GMT 51.476254 -0.756454 3,525 89 150 -832
2019-10-14 09:18:02 GMT 51.476208 -0.759583 3,650 89 150 -832
2019-10-14 09:17:58 GMT 51.476208 -0.764008 3,650 89 150 -896
2019-10-14 09:17:55 GMT 51.476166 -0.768226 3,675 89 150 -896
2019-10-14 09:17:51 GMT 51.476166 -0.772680 3,750 89 150 -896
2019-10-14 09:17:47 GMT 51.476166 -0.775724 3,775 89 150 -896
2019-10-14 09:17:44 GMT 51.476116 -0.782166 3,875 89 149 -896
2019-10-14 09:17:41 GMT 51.476116 -0.782166 3,950 89 149 -896
2019-10-14 09:17:38 GMT 51.476067 -0.786133 3,950 89 148 -832
2019-10-14 09:17:35 GMT 51.476028 -0.789902 3,975 89 148 -768
2019-10-14 09:17:32 GMT 51.476028 -0.792055 4,100 89 149 -896
2019-10-14 09:17:29 GMT 51.475975 -0.795822 4,525 64 185 -960
2019-10-14 09:17:26 GMT 51.475975 -0.800247 4,125 89 149 -832
2019-10-14 09:17:23 GMT 51.475937 -0.802225 4,150 89 150 -832
2019-10-14 09:17:20 GMT 51.475929 -0.805054 4,225 89 150 -832
2019-10-14 09:17:17 GMT 51.475883 -0.812683 4,300 88 162 -704
2019-10-14 09:17:14 GMT 51.475883 -0.812683 4,275 89 151 -768
2019-10-14 09:17:11 GMT 51.475883 -0.815811 4,300 89 152 -768
2019-10-14 09:17:07 GMT 51.475845 -0.820931 4,350 89 153 -640
2019-10-14 09:17:04 GMT 51.475834 -0.824814 4,400 89 154 -640
2019-10-14 09:17:01 GMT 51.475800 -0.827315 4,425 89 156 -576
2019-10-14 09:16:58 GMT 51.475742 -0.834579 4,450 88 158 -640
2019-10-14 09:16:55 GMT 51.475742 -0.834579 4,475 88 162 -704
2019-10-14 09:16:52 GMT 51.475708 -0.839044 4,525 88 163 -704
2019-10-14 09:16:49 GMT 51.475662 -0.841493 4,550 88 164 -704
2019-10-14 09:16:46 GMT 51.475616 -0.846318 4,600 88 166 -576
2019-10-14 09:16:43 GMT 51.475571 -0.849288 4,600 88 167 -512
2019-10-14 09:16:40 GMT 51.475555 -0.851593 4,650 87 170 -576
2019-10-14 09:16:37 GMT 51.475388 -0.855894 4,675 84 173 -640
2019-10-14 09:16:34 GMT 51.475090 -0.859680 4,700 82 174 -704
2019-10-14 09:16:31 GMT 51.474300 -0.864868 4,925 57 189 -960
2019-10-14 09:16:28 GMT 51.473087 -0.869370 4,800 62 186 -960
2019-10-14 09:16:24 GMT 51.471725 -0.872968 4,850 54 191 -960
2019-10-14 09:16:21 GMT 51.468155 -0.880432 4,925 50 194 -704
2019-10-14 09:16:18 GMT 51.468155 -0.880432 4,975 46 198 -448
2019-10-14 09:16:15 GMT 51.466759 -0.883102 5,000 48 196 -448
2019-10-14 09:16:12 GMT 51.464951 -0.886329 5,025 45 199 -512
2019-10-14 09:16:08 GMT 51.462383 -0.890198 5,050 41 201 -576
2019-10-14 09:16:05 GMT 51.460144 -0.892862 5,075 32 205 -448
2019-10-14 09:16:02 GMT 51.457306 -0.895462 5,125 19 209 -256
2019-10-14 09:15:58 GMT 51.453724 -0.897675 5,125 17 210 -192
2019-10-14 09:15:55 GMT 51.451023 -0.898743 5,125 0 215 -128
2019-10-14 09:15:52 GMT 51.448929 -0.899246 5,150 0 215 -128
2019-10-14 09:15:49 GMT 51.444534 -0.899468 5,150 357 215 -64
2019-10-14 09:15:46 GMT 51.442154 -0.899320 5,150 357 214 -64
2019-10-14 09:15:43 GMT 51.436615 -0.898800 5,150 357 214 -128
2019-10-14 09:15:37 GMT 51.433823 -0.898503 5,700 357 216 -768
2019-10-14 09:15:34 GMT 51.430866 -0.898285 5,150 357 214 -192
2019-10-14 09:15:31 GMT 51.426315 -0.897835 5,175 357 215 -320
2019-10-14 09:15:27 GMT 51.423111 -0.897538 5,200 358 215 -576
2019-10-14 09:15:24 GMT 51.420532 -0.897369 5,200 357 215 -512
2019-10-14 09:15:21 GMT 51.417984 -0.897093 5,225 358 215 -576
2019-10-14 09:15:18 GMT 51.414574 -0.896835 5,275 357 216 -640
2019-10-14 09:15:14 GMT 51.409973 -0.896425 6,950 357 216 -768
2019-10-14 09:15:11 GMT 51.408195 -0.896225 5,350 357 216 -768
2019-10-14 09:15:08 GMT 51.404610 -0.895844 5,400 354 215 -640
2019-10-14 09:15:04 GMT 51.400654 -0.895233 5,425 354 215 -640
2019-10-14 09:15:01 GMT 51.397293 -0.894421 5,475 348 215 -704
2019-10-14 09:14:57 GMT 51.393997 -0.893173 5,500 334 214 -768
2019-10-14 09:14:53 GMT 51.389786 -0.890486 5,600 329 214 -768
2019-10-14 09:14:50 GMT 51.387199 -0.888062 5,600 322 212 -832
2019-10-14 09:14:47 GMT 51.385162 -0.885587 5,675 315 210 -832
2019-10-14 09:14:44 GMT 51.383423 -0.883063 5,675 315 210 -832
2019-10-14 09:14:41 GMT 51.381180 -0.878832 5,700 289 203 -960
2019-10-14 09:14:38 GMT 51.379852 -0.875789 5,875 297 205 -896
2019-10-14 09:14:35 GMT 51.377331 -0.866699 5,875 289 203 -960
2019-10-14 09:14:32 GMT 51.377331 -0.866699 5,875 286 200 -832
2019-10-14 09:14:29 GMT 51.376633 -0.862732 5,900 286 200 -832
2019-10-14 09:14:26 GMT 51.375778 -0.857231 5,950 285 202 -1536
2019-10-14 09:14:22 GMT 51.374908 -0.851746 6,025 285 202 -1536
2019-10-14 09:14:19 GMT 51.374352 -0.848236 6,100 284 200 -1728
2019-10-14 09:14:16 GMT 51.373764 -0.844537 6,250 285 200 -1664
2019-10-14 09:14:13 GMT 51.372803 -0.838227 6,550 285 197 -1536
2019-10-14 09:14:10 GMT 51.371796 -0.831917 6,400 285 198 -1664
2019-10-14 09:14:04 GMT 51.370861 -0.825958 6,500 285 197 -1472
2019-10-14 09:14:01 GMT 51.370300 -0.822601 6,550 286 197 -1280
2019-10-14 09:13:58 GMT 51.369324 -0.816626 6,650 286 197 -1344
2019-10-14 09:13:55 GMT 51.368774 -0.813285 6,675 286 197 -1344
2019-10-14 09:13:51 GMT 51.367676 -0.807050 6,775 286 198 -1152
2019-10-14 09:13:48 GMT 51.367172 -0.804229 6,850 286 199 -1216
2019-10-14 09:13:45 GMT 51.366390 -0.800018 6,900 287 201 -960
2019-10-14 09:13:42 GMT 51.364761 -0.790787 7,025 286 203 -832
2019-10-14 09:13:39 GMT 51.364761 -0.790787 7,125 286 207 -640
2019-10-14 09:13:36 GMT 51.364109 -0.787354 7,250 287 227 -640
2019-10-14 09:13:33 GMT 51.363235 -0.782330 7,075 286 216 -320
2019-10-14 09:13:30 GMT 51.361588 -0.773200 7,325 286 220 -320
2019-10-14 09:13:27 GMT 51.361588 -0.773200 7,125 286 219 -256
2019-10-14 09:13:24 GMT 51.360897 -0.769196 7,150 286 221 -448
2019-10-14 09:13:21 GMT 51.360012 -0.764084 7,150 286 224 -896
2019-10-14 09:13:18 GMT 51.359081 -0.758972 7,175 286 225 -832
2019-10-14 09:13:15 GMT 51.358383 -0.755157 7,300 287 250 -1088
2019-10-14 09:13:12 GMT 51.357128 -0.747986 7,275 287 231 -640
2019-10-14 09:13:09 GMT 51.356522 -0.744705 7,325 287 233 -576
2019-10-14 09:13:06 GMT 51.355591 -0.739441 7,325 287 235 -640
2019-10-14 09:13:03 GMT 51.353401 -0.727386 7,400 287 240 -512
2019-10-14 09:12:59 GMT 51.353401 -0.727386 7,425 287 240 -512
2019-10-14 09:12:56 GMT 51.352657 -0.723267 7,425 287 240 -512
2019-10-14 09:12:53 GMT 51.349869 -0.708470 7,500 287 246 -704
2019-10-14 09:12:47 GMT 51.349731 -0.707727 7,525 287 247 -768
2019-10-14 09:12:44 GMT 51.348606 -0.701752 7,700 287 250 -1088
2019-10-14 09:12:41 GMT 51.347488 -0.695776 7,600 288 252 -960
2019-10-14 09:12:38 GMT 51.345631 -0.686111 7,675 288 253 -1152
2019-10-14 09:12:35 GMT 51.344231 -0.679016 7,725 288 253 -1024
2019-10-14 09:12:31 GMT 51.344231 -0.679016 7,850 288 254 -896
2019-10-14 09:12:28 GMT 51.342865 -0.672170 7,850 288 254 -832
2019-10-14 09:12:25 GMT 51.342316 -0.669349 7,875 288 255 -640
2019-10-14 09:12:22 GMT 51.340973 -0.662460 7,925 288 257 -448
2019-10-14 09:12:19 GMT 51.339752 -0.656359 7,950 288 258 -384
2019-10-14 09:12:16 GMT 51.338608 -0.650495 7,950 288 259 -256
2019-10-14 09:12:13 GMT 51.337994 -0.647202 7,975 288 259 -192
2019-10-14 09:12:10 GMT 51.336777 -0.640993 8,000 287 260 -64
2019-10-14 09:12:07 GMT 51.335758 -0.635452 8,000 287 261 -64
2019-10-14 09:12:04 GMT 51.334641 -0.629578 8,000 287 261 0
2019-10-14 09:12:01 GMT 51.332474 -0.618129 8,000 287 261 0
2019-10-14 09:11:58 GMT 51.332474 -0.618129 8,000 287 261 -64
2019-10-14 09:11:55 GMT 51.331429 -0.612564 8,000 287 261 0
2019-10-14 09:11:49 GMT 51.329086 -0.600388 8,000 287 261 0
2019-10-14 09:11:46 GMT 51.328312 -0.596313 8,000 288 261 0
2019-10-14 09:11:43 GMT 51.327255 -0.590812 8,000 305 271 -64
2019-10-14 09:11:39 GMT 51.326031 -0.584564 8,000 293 263 128
2019-10-14 09:11:36 GMT 51.324875 -0.579009 8,000 290 262 64
2019-10-14 09:11:33 GMT 51.323227 -0.571734 8,000 292 263 128
2019-10-14 09:11:28 GMT 51.320908 -0.563583 8,000 298 267 0
2019-10-14 09:11:25 GMT 51.318626 -0.557404 8,000 313 275 -64
2019-10-14 09:11:22 GMT 51.316406 -0.552508 8,000 316 277 0
2019-10-14 09:11:19 GMT 51.314117 -0.548203 8,000 314 275 -64
2019-10-14 09:11:16 GMT 51.308762 -0.539518 8,000 316 276 0
2019-10-14 09:11:13 GMT 51.308762 -0.539518 8,000 316 276 0
2019-10-14 09:11:10 GMT 51.306385 -0.535736 8,000 316 276 -64
2019-10-14 09:11:07 GMT 51.303871 -0.531769 8,000 316 276 0
2019-10-14 09:11:04 GMT 51.301682 -0.528259 8,000 316 276 0
2019-10-14 09:11:01 GMT 51.298424 -0.523071 8,000 316 276 0
2019-10-14 09:10:58 GMT 51.295715 -0.518807 8,000 316 278 0
2019-10-14 09:10:55 GMT 51.293152 -0.514724 8,000 316 277 0
2019-10-14 09:10:52 GMT 51.289719 -0.509262 8,000 316 278 64
2019-10-14 09:10:49 GMT 51.287903 -0.506363 8,000 316 277 0
2019-10-14 09:10:46 GMT 51.284599 -0.501175 8,000 316 277 -64
2019-10-14 09:10:43 GMT 51.281845 -0.496909 8,000 316 277 0
2019-10-14 09:10:40 GMT 51.279106 -0.492554 8,000 316 277 0
2019-10-14 09:10:37 GMT 51.273239 -0.483398 8,000 316 277 0
2019-10-14 09:10:34 GMT 51.273239 -0.483398 8,000 316 277 -64
2019-10-14 09:10:31 GMT 51.267975 -0.475010 8,000 315 278 64
2019-10-14 09:10:28 GMT 51.267975 -0.475010 8,000 316 277 0
2019-10-14 09:10:25 GMT 51.265045 -0.470482 8,000 316 277 64
2019-10-14 09:10:22 GMT 51.262672 -0.466766 8,000 315 277 0
2019-10-14 09:10:19 GMT 51.259739 -0.462189 8,000 316 277 -64
2019-10-14 09:10:16 GMT 51.256622 -0.457269 8,000 316 277 -64
2019-10-14 09:10:13 GMT 51.253922 -0.452957 8,000 316 277 0
2019-10-14 09:10:10 GMT 51.251362 -0.448990 8,000 316 277 0
2019-10-14 09:10:07 GMT 51.249496 -0.446091 8,000 315 278 64
2019-10-14 09:10:04 GMT 51.246414 -0.441160 8,000 315 278 64
2019-10-14 09:10:01 GMT 51.243164 -0.435964 8,000 315 278 -64
2019-10-14 09:09:58 GMT 51.240047 -0.431061 8,000 315 277 64
2019-10-14 09:09:55 GMT 51.237164 -0.426407 8,000 315 277 -64
2019-10-14 09:09:52 GMT 51.234467 -0.422083 8,000 315 277 0
2019-10-14 09:09:49 GMT 51.229946 -0.414734 8,000 315 277 -64
2019-10-14 09:09:46 GMT 51.229946 -0.414734 8,000 315 277 -64
2019-10-14 09:09:43 GMT 51.226734 -0.409470 8,000 315 277 0
2019-10-14 09:09:40 GMT 51.224918 -0.406570 8,000 315 277 0
2019-10-14 09:09:37 GMT 51.222244 -0.402189 8,000 315 277 0
2019-10-14 09:09:34 GMT 51.219360 -0.397512 8,000 315 278 0
2019-10-14 09:09:31 GMT 51.214165 -0.388947 8,000 315 280 0
2019-10-14 09:09:28 GMT 51.214165 -0.388947 8,000 315 280 64
2019-10-14 09:09:25 GMT 51.210907 -0.383606 8,000 315 281 0
2019-10-14 09:09:21 GMT 51.207092 -0.377321 8,000 315 282 0
2019-10-14 09:09:18 GMT 51.204895 -0.373758 8,000 315 282 0
2019-10-14 09:09:15 GMT 51.202156 -0.369339 8,000 315 282 -64
2019-10-14 09:09:12 GMT 51.198524 -0.363388 8,000 315 282 -64
2019-10-14 09:09:09 GMT 51.196289 -0.359879 8,000 315 282 0
2019-10-14 09:09:06 GMT 51.191120 -0.351639 8,000 315 282 -128
2019-10-14 09:09:03 GMT 51.191120 -0.351639 8,000 315 282 0
2019-10-14 09:09:00 GMT 51.188370 -0.347183 8,000 315 281 -64
2019-10-14 09:08:56 GMT 51.183067 -0.338669 8,000 315 280 -192
2019-10-14 09:08:53 GMT 51.179111 -0.332260 8,025 315 277 -192
2019-10-14 09:08:50 GMT 51.179111 -0.332260 8,025 315 277 -448
2019-10-14 09:08:47 GMT 51.176598 -0.328217 8,050 315 276 -640
2019-10-14 09:08:44 GMT 51.173172 -0.322686 8,175 316 275 -1344
2019-10-14 09:08:41 GMT 51.171246 -0.319443 8,075 315 276 -832
2019-10-14 09:08:38 GMT 51.168915 -0.315708 8,100 315 276 -832
2019-10-14 09:08:35 GMT 51.165100 -0.309601 8,200 315 277 -1536
2019-10-14 09:08:32 GMT 51.161839 -0.304413 8,250 315 275 -1664
2019-10-14 09:08:29 GMT 51.159328 -0.300446 8,300 315 275 -1664
2019-10-14 09:08:26 GMT 51.157185 -0.297012 8,400 316 275 -1344
2019-10-14 09:08:23 GMT 51.154999 -0.293579 8,475 315 275 -1600
2019-10-14 09:08:20 GMT 51.151566 -0.288168 8,550 316 275 -1408
2019-10-14 09:08:17 GMT 51.149414 -0.284754 8,775 316 274 -1600
2019-10-14 09:08:14 GMT 51.145966 -0.279312 8,700 316 274 -1792
2019-10-14 09:08:11 GMT 51.143406 -0.275345 8,850 316 274 -1600
2019-10-14 09:08:07 GMT 51.139938 -0.270056 8,975 317 273 -1472
2019-10-14 09:08:03 GMT 51.137009 -0.265602 8,975 317 273 -1344
2019-10-14 09:08:00 GMT 51.133347 -0.260109 9,050 317 274 -1088
2019-10-14 09:07:57 GMT 51.131836 -0.257882 9,075 317 275 -1088
2019-10-14 09:07:54 GMT 51.128494 -0.252908 9,150 318 275 -1216
2019-10-14 09:07:51 GMT 51.123062 -0.244904 9,250 318 276 -1216
2019-10-14 09:07:48 GMT 51.123062 -0.244904 9,275 318 277 -1280
2019-10-14 09:07:45 GMT 51.118919 -0.238876 9,375 318 277 -1472
2019-10-14 09:07:42 GMT 51.117058 -0.236130 9,400 318 277 -1472
2019-10-14 09:07:39 GMT 51.113239 -0.230637 9,500 318 277 -1408
2019-10-14 09:07:36 GMT 51.111332 -0.227890 9,550 321 283 0
2019-10-14 09:07:32 GMT 51.107300 -0.222176 9,600 319 278 -1216
2019-10-14 09:07:29 GMT 51.101120 -0.213491 9,725 319 278 -1088
2019-10-14 09:07:26 GMT 51.101120 -0.213491 9,750 319 278 -1088
2019-10-14 09:07:23 GMT 51.098831 -0.210225 9,800 319 278 -960
2019-10-14 09:07:20 GMT 51.095921 -0.206146 9,850 319 279 -768
2019-10-14 09:07:17 GMT 51.093430 -0.202579 9,900 319 279 -640
2019-10-14 09:07:14 GMT 51.090942 -0.199051 9,900 319 279 -512
2019-10-14 09:07:11 GMT 51.086704 -0.193024 9,950 319 279 -320
2019-10-14 09:07:05 GMT 51.081676 -0.185928 9,975 319 279 -256
2019-10-14 09:07:02 GMT 51.075348 -0.176820 10,000 319 280 0
2019-10-14 09:06:59 GMT 51.075348 -0.176820 10,000 319 279 0
2019-10-14 09:06:55 GMT 51.072281 -0.172441 10,000 319 280 0
2019-10-14 09:06:52 GMT 51.069340 -0.168304 10,000 319 281 0
2019-10-14 09:06:49 GMT 51.066055 -0.163681 10,000 319 281 0
2019-10-14 09:06:46 GMT 51.063103 -0.159683 10,000 321 283 0
2019-10-14 09:06:43 GMT 51.060059 -0.155664 10,000 322 284 0
2019-10-14 09:06:40 GMT 51.056808 -0.151433 10,000 322 284 0
2019-10-14 09:06:37 GMT 51.054119 -0.148087 10,000 324 286 0
2019-10-14 09:06:34 GMT 51.050079 -0.143268 10,000 324 287 0
2019-10-14 09:06:31 GMT 51.047562 -0.140298 10,000 324 286 0
2019-10-14 09:06:27 GMT 51.040524 -0.131989 10,000 324 287 -64
2019-10-14 09:06:24 GMT 51.036709 -0.127487 10,025 324 287 -64
2019-10-14 09:06:21 GMT 51.036709 -0.127487 10,000 324 283 -128
2019-10-14 09:06:18 GMT 51.033966 -0.124190 10,000 324 285 -64
2019-10-14 09:06:15 GMT 51.030796 -0.120392 10,075 324 282 -704
2019-10-14 09:06:12 GMT 51.027649 -0.116693 10,025 324 283 -192
2019-10-14 09:06:09 GMT 51.024261 -0.112684 10,025 324 283 -192
2019-10-14 09:06:06 GMT 51.020508 -0.108230 10,275 324 284 -1216
2019-10-14 09:06:03 GMT 51.018402 -0.105781 10,100 324 282 -896
2019-10-14 09:06:00 GMT 51.013988 -0.100555 10,050 324 281 -448
2019-10-14 09:05:57 GMT 51.012131 -0.098357 10,075 324 282 -704
2019-10-14 09:05:54 GMT 51.009426 -0.095139 10,075 324 282 -704
2019-10-14 09:05:51 GMT 51.004822 -0.089645 10,150 324 283 -1152
2019-10-14 09:05:48 GMT 51.002518 -0.086926 10,225 324 284 -1216
2019-10-14 09:05:45 GMT 50.998718 -0.082472 10,625 324 286 -1216
2019-10-14 09:05:42 GMT 50.996613 -0.079948 10,500 324 284 -1216
2019-10-14 09:05:39 GMT 50.993462 -0.076218 11,025 324 288 -1216
2019-10-14 09:05:36 GMT 50.989838 -0.072005 10,475 324 287 -1216
2019-10-14 09:05:32 GMT 50.985825 -0.067215 10,475 324 285 -1216
2019-10-14 09:05:29 GMT 50.982239 -0.062949 10,575 324 286 -1216
2019-10-14 09:05:26 GMT 50.979031 -0.059204 10,650 324 287 -1280
2019-10-14 09:05:23 GMT 50.975876 -0.055451 10,925 324 288 -1216
2019-10-14 09:05:20 GMT 50.972900 -0.051888 10,775 324 288 -1216
2019-10-14 09:05:17 GMT 50.970093 -0.048676 11,125 324 288 -1216
2019-10-14 09:05:14 GMT 50.963058 -0.040308 10,900 324 288 -1216
2019-10-14 09:05:11 GMT 50.963058 -0.040308 10,925 324 288 -1216
2019-10-14 09:05:08 GMT 50.957474 -0.033776 11,025 324 288 -1216
2019-10-14 09:05:05 GMT 50.957474 -0.033776 11,025 324 288 -1216
2019-10-14 09:05:02 GMT 50.953217 -0.028728 11,100 324 288 -1216
2019-10-14 09:04:59 GMT 50.950607 -0.025758 11,125 324 288 -1216
2019-10-14 09:04:56 GMT 50.946537 -0.020981 11,275 324 288 -1216
2019-10-14 09:04:53 GMT 50.944199 -0.018187 11,275 324 288 -1216
2019-10-14 09:04:50 GMT 50.941177 -0.014698 12,700 324 297 -1280
2019-10-14 09:04:47 GMT 50.937332 -0.010244 11,400 324 288 -1216
2019-10-14 09:04:43 GMT 50.933270 -0.005493 11,475 324 287 -1280
2019-10-14 09:04:40 GMT 50.930290 -0.001984 11,625 324 287 -1280
2019-10-14 09:04:37 GMT 50.923233 0.006310 11,625 324 287 -1280
2019-10-14 09:04:34 GMT 50.923233 0.006310 11,700 324 286 -1280
2019-10-14 09:04:31 GMT 50.920670 0.009279 11,775 324 286 -1280
2019-10-14 09:04:28 GMT 50.917282 0.013288 11,775 324 286 -1280
2019-10-14 09:04:25 GMT 50.913624 0.017471 11,850 324 287 -1280
2019-10-14 09:04:22 GMT 50.910645 0.020981 11,950 324 287 -1216
2019-10-14 09:04:19 GMT 50.906826 0.025482 11,975 324 288 -1216
2019-10-14 09:04:16 GMT 50.903801 0.028992 12,150 324 288 -1216
2019-10-14 09:04:13 GMT 50.901031 0.032291 12,125 324 288 -1216
2019-10-14 09:04:10 GMT 50.898468 0.035334 12,125 324 288 -1216
2019-10-14 09:04:07 GMT 50.894577 0.039863 12,200 324 289 -1152
2019-10-14 09:04:03 GMT 50.890068 0.045166 12,300 324 290 -1152
2019-10-14 09:04:00 GMT 50.887089 0.048676 12,350 324 291 -1216
2019-10-14 09:03:57 GMT 50.881874 0.054779 12,375 324 291 -1216
2019-10-14 09:03:54 GMT 50.880798 0.056045 12,475 324 291 -1280
2019-10-14 09:03:51 GMT 50.876244 0.061417 12,550 324 292 -1280
2019-10-14 09:03:48 GMT 50.873886 0.064211 12,575 324 293 -1216
2019-10-14 09:03:45 GMT 50.867584 0.071564 12,650 324 293 -1280
2019-10-14 09:03:42 GMT 50.867584 0.071564 12,725 324 293 -1280
2019-10-14 09:03:39 GMT 50.863403 0.076459 12,775 324 294 -1216
2019-10-14 09:03:35 GMT 50.856644 0.084381 12,900 324 295 -1216
2019-10-14 09:03:32 GMT 50.856644 0.084381 12,950 324 296 -1216
2019-10-14 09:03:29 GMT 50.853790 0.087742 12,975 324 296 -1216
2019-10-14 09:03:23 GMT 50.846741 0.095908 13,075 324 297 -1280
2019-10-14 09:03:20 GMT 50.843842 0.099258 13,100 324 297 -1280
2019-10-14 09:03:17 GMT 50.839420 0.104446 13,275 324 298 -1280
2019-10-14 09:03:14 GMT 50.836765 0.107574 13,275 324 298 -1216
2019-10-14 09:03:10 GMT 50.828110 0.117732 13,450 324 300 -1216
2019-10-14 09:03:06 GMT 50.828110 0.117732 13,450 324 300 -1216
2019-10-14 09:03:03 GMT 50.823669 0.122928 13,475 324 300 -1216
2019-10-14 09:03:00 GMT 50.819866 0.127411 13,575 324 301 -1280
2019-10-14 09:02:57 GMT 50.818771 0.128718 13,825 324 301 -1280
2019-10-14 09:02:53 GMT 50.813164 0.135269 13,750 324 302 -1280
2019-10-14 09:02:50 GMT 50.809753 0.139185 13,900 324 303 -1280
2019-10-14 09:02:47 GMT 50.802319 0.147858 13,925 324 304 -1280
2019-10-14 09:02:43 GMT 50.802319 0.147858 13,875 324 304 -1280
2019-10-14 09:02:40 GMT 50.794590 0.156784 14,075 324 306 -1216
2019-10-14 09:02:34 GMT 50.792309 0.159454 14,075 324 306 -1280
2019-10-14 09:02:31 GMT 50.787281 0.165253 14,125 324 311 -1152
2019-10-14 09:02:28 GMT 50.784534 0.168457 14,225 324 308 -1152
2019-10-14 09:02:25 GMT 50.777180 0.177002 14,300 324 308 -1152
2019-10-14 09:02:22 GMT 50.777180 0.177002 14,350 324 309 -1152
2019-10-14 09:02:19 GMT 50.774899 0.179672 14,525 324 310 -1216
2019-10-14 09:02:16 GMT 50.771221 0.184021 14,450 324 312 -1152
2019-10-14 09:02:12 GMT 50.766357 0.189663 14,525 324 312 -1152
2019-10-14 09:02:09 GMT 50.761955 0.194778 14,575 324 316 -1216
2019-10-14 09:02:05 GMT 50.758232 0.199203 14,675 324 316 -1216
2019-10-14 09:02:01 GMT 50.754463 0.203552 14,800 324 316 -1216
2019-10-14 09:01:58 GMT 50.749294 0.209579 14,750 324 316 -1216
2019-10-14 09:01:55 GMT 50.746967 0.212250 14,800 324 316 -1216
2019-10-14 09:01:52 GMT 50.740776 0.219421 15,225 324 320 -1216
2019-10-14 09:01:48 GMT 50.738914 0.221634 14,950 324 319 -1216
2019-10-14 09:01:44 GMT 50.730347 0.231552 15,075 324 320 -1216
2019-10-14 09:01:41 GMT 50.730347 0.231552 15,450 324 326 -1280
2019-10-14 09:01:38 GMT 50.726997 0.235443 15,450 324 326 -1280
2019-10-14 09:01:35 GMT 50.721687 0.241547 15,350 324 323 -1216
2019-10-14 09:01:31 GMT 50.717606 0.246302 15,450 324 324 -1344
2019-10-14 09:01:28 GMT 50.714939 0.249329 15,350 324 324 -1344
2019-10-14 09:01:24 GMT 50.708908 0.256397 15,450 324 326 -1280
2019-10-14 09:01:21 GMT 50.705521 0.260331 15,525 324 326 -1280
2019-10-14 09:01:18 GMT 50.702370 0.263977 15,550 324 326 -1280
2019-10-14 09:01:15 GMT 50.698925 0.267868 15,625 324 327 -1280
2019-10-14 09:01:12 GMT 50.694550 0.272980 15,675 324 327 -1216
2019-10-14 09:01:09 GMT 50.692127 0.275803 15,775 324 329 -1216
2019-10-14 09:01:05 GMT 50.686729 0.281982 15,875 324 329 -1280
2019-10-14 09:01:02 GMT 50.683044 0.286238 15,925 324 330 -1280
2019-10-14 09:00:59 GMT 50.679108 0.290841 16,700 324 337 -1344
2019-10-14 09:00:56 GMT 50.676395 0.293961 16,075 324 331 -1216
2019-10-14 09:00:53 GMT 50.671970 0.299072 16,100 324 332 -1280
2019-10-14 09:00:50 GMT 50.668015 0.303683 16,375 324 343 -1216
2019-10-14 09:00:47 GMT 50.664780 0.307400 16,325 324 337 -1280
2019-10-14 09:00:44 GMT 50.660564 0.312294 16,275 324 334 -1280
2019-10-14 09:00:41 GMT 50.655807 0.317808 16,350 324 336 -1216
2019-10-14 09:00:38 GMT 50.653290 0.320700 16,425 324 336 -1280
2019-10-14 09:00:33 GMT 50.642506 0.333153 16,500 324 339 -1280
2019-10-14 09:00:29 GMT 50.640968 0.334860 16,575 324 339 -1280
2019-10-14 09:00:25 GMT 50.637680 0.338697 16,900 324 340 -1280
2019-10-14 09:00:22 GMT 50.632866 0.344214 16,775 324 342 -1280
2019-10-14 09:00:19 GMT 50.629532 0.348021 16,800 324 342 -1280
2019-10-14 09:00:16 GMT 50.625187 0.353047 16,950 324 342 -1216
2019-10-14 09:00:13 GMT 50.621887 0.356839 17,000 324 346 -1152
2019-10-14 09:00:10 GMT 50.615456 0.364182 17,800 324 349 -1280
2019-10-14 09:00:07 GMT 50.612339 0.367745 17,050 324 346 -1152
2019-10-14 09:00:04 GMT 50.609776 0.370714 17,125 324 346 -1152
2019-10-14 09:00:01 GMT 50.605865 0.375198 17,175 325 347 -1216
2019-10-14 08:59:58 GMT 50.602753 0.378739 17,200 325 347 -1216
2019-10-14 08:59:55 GMT 50.597580 0.384666 17,300 325 347 -1216
2019-10-14 08:59:52 GMT 50.594971 0.387629 17,400 324 347 -1280
2019-10-14 08:59:48 GMT 50.589798 0.393556 17,425 324 348 -1280
2019-10-14 08:59:45 GMT 50.586136 0.397748 17,450 324 348 -1280
2019-10-14 08:59:42 GMT 50.581707 0.402783 17,500 324 350 -1152
2019-10-14 08:59:39 GMT 50.577564 0.407608 17,600 324 349 -1344
2019-10-14 08:59:36 GMT 50.573376 0.412358 17,650 324 349 -1344
2019-10-14 08:59:33 GMT 50.568161 0.418371 17,750 324 350 -1216
2019-10-14 08:59:30 GMT 50.565811 0.421022 17,800 324 350 -1024
2019-10-14 08:59:27 GMT 50.560593 0.427021 18,000 324 350 -960
2019-10-14 08:59:24 GMT 50.554565 0.433886 17,925 324 350 -640
2019-10-14 08:59:16 GMT 50.546448 0.443212 17,975 324 350 -192
2019-10-14 08:59:13 GMT 50.543289 0.446753 18,000 324 350 -64
2019-10-14 08:59:10 GMT 50.538319 0.452444 18,000 324 350 0
2019-10-14 08:59:07 GMT 50.534912 0.456294 18,000 324 350 -64
2019-10-14 08:59:04 GMT 50.530243 0.461715 18,000 324 350 0
2019-10-14 08:59:01 GMT 50.523701 0.469146 18,000 325 347 -64
2019-10-14 08:58:58 GMT 50.523701 0.469146 18,000 324 348 -128
2019-10-14 08:58:55 GMT 50.519760 0.473641 18,000 324 348 -128
2019-10-14 08:58:50 GMT 50.514297 0.479910 18,100 324 348 -128
2019-10-14 08:58:47 GMT 50.508572 0.486368 18,025 325 348 -128
2019-10-14 08:58:43 GMT 50.504429 0.491119 18,025 325 347 -64
2019-10-14 08:58:40 GMT 50.500751 0.495127 18,025 7 381 -1600
2019-10-14 08:58:37 GMT 50.496140 0.499733 19,525 8 380 -1536
2019-10-14 08:58:34 GMT 50.491905 0.503441 18,025 342 357 -576
2019-10-14 08:58:31 GMT 50.488129 0.506383 18,025 336 352 -192
2019-10-14 08:58:28 GMT 50.482681 0.509852 18,050 342 357 -576
2019-10-14 08:58:25 GMT 50.478592 0.511978 18,075 348 363 -1024
2019-10-14 08:58:22 GMT 50.474079 0.513834 18,075 348 363 -1024
2019-10-14 08:58:19 GMT 50.468121 0.515689 18,150 354 369 -1408
2019-10-14 08:58:16 GMT 50.463730 0.516502 18,200 358 371 -1600
2019-10-14 08:58:12 GMT 50.457550 0.517152 18,375 7 379 -1600
2019-10-14 08:58:09 GMT 50.451687 0.517100 18,375 2 375 -1664
2019-10-14 08:58:06 GMT 50.445450 0.516506 18,450 4 377 -1664
2019-10-14 08:58:02 GMT 50.438873 0.515201 18,575 8 379 -1600
2019-10-14 08:57:59 GMT 50.434708 0.514261 18,725 8 380 -1536
2019-10-14 08:57:55 GMT 50.427387 0.512646 18,800 7 381 -1536
2019-10-14 08:57:51 GMT 50.419704 0.511013 18,900 7 381 -1600
2019-10-14 08:57:48 GMT 50.408890 0.508551 19,125 7 385 -1536
2019-10-14 08:57:45 GMT 50.408890 0.508551 19,200 8 382 -1600
2019-10-14 08:57:42 GMT 50.402946 0.507301 19,450 7 383 -1600
2019-10-14 08:57:39 GMT 50.398010 0.506188 19,275 7 386 -1536
2019-10-14 08:57:35 GMT 50.392426 0.504926 19,250 7 386 -1536
2019-10-14 08:57:32 GMT 50.387489 0.503886 19,325 7 384 -1536
2019-10-14 08:57:29 GMT 50.380783 0.502408 19,375 7 385 -1536
2019-10-14 08:57:26 GMT 50.377621 0.501734 20,100 7 389 -1472
2019-10-14 08:57:23 GMT 50.370895 0.500312 19,575 7 389 -1472
2019-10-14 08:57:19 GMT 50.365219 0.499083 19,650 7 387 -1536
2019-10-14 08:57:16 GMT 50.359188 0.497799 19,775 7 389 -1472
2019-10-14 08:57:13 GMT 50.346680 0.495252 19,875 7 390 -1344
2019-10-14 08:57:09 GMT 50.346680 0.495252 19,900 7 390 -1344
2019-10-14 08:57:05 GMT 50.338806 0.493662 20,000 7 393 -1280
2019-10-14 08:57:02 GMT 50.334503 0.492795 20,075 6 395 -1152
2019-10-14 08:56:58 GMT 50.325119 0.490988 20,125 6 393 -1216
2019-10-14 08:56:54 GMT 50.318573 0.489831 20,200 6 395 -1152
2019-10-14 08:56:51 GMT 50.313492 0.488964 20,275 5 396 -1152
2019-10-14 08:56:48 GMT 50.308025 0.488149 20,400 5 396 -1216
2019-10-14 08:56:45 GMT 50.301414 0.487481 21,025 337 383 64
2019-10-14 08:56:41 GMT 50.295551 0.487184 20,625 349 393 -1600
2019-10-14 08:56:37 GMT 50.287857 0.487735 20,625 354 395 -1600
2019-10-14 08:56:34 GMT 50.281723 0.488892 21,025 348 393 -1536
2019-10-14 08:56:30 GMT 50.275299 0.490896 20,800 345 390 -1344
2019-10-14 08:56:26 GMT 50.269714 0.493197 20,825 342 389 -1216
2019-10-14 08:56:23 GMT 50.263569 0.496463 20,875 337 385 -768
2019-10-14 08:56:20 GMT 50.258652 0.499733 21,025 330 379 -64
2019-10-14 08:56:17 GMT 50.252930 0.504070 21,000 49 389 64
2019-10-14 08:56:14 GMT 50.248951 0.507598 21,025 330 379 -64
2019-10-14 08:56:11 GMT 50.243504 0.512572 21,025 330 379 128
2019-10-14 08:56:08 GMT 50.239826 0.515764 21,025 49 389 64
2019-10-14 08:56:05 GMT 50.236404 0.518598 21,000 342 387 0
2019-10-14 08:56:02 GMT 50.231586 0.522073 21,000 351 392 0
2019-10-14 08:55:59 GMT 50.225536 0.525488 21,000 2 397 0
2019-10-14 08:55:55 GMT 50.218597 0.528309 21,000 351 392 0
2019-10-14 08:55:52 GMT 50.213242 0.529729 21,000 358 395 0
2019-10-14 08:55:48 GMT 50.206696 0.530741 21,000 1 397 0
2019-10-14 08:55:45 GMT 50.200104 0.530741 21,000 6 398 0
2019-10-14 08:55:41 GMT 50.187317 0.528235 21,000 13 399 0
2019-10-14 08:55:38 GMT 50.183350 0.526693 21,000 13 399 0
2019-10-14 08:55:35 GMT 50.183350 0.526693 21,000 19 399 0
2019-10-14 08:55:32 GMT 50.177719 0.524019 21,000 74 367 0
2019-10-14 08:55:28 GMT 50.170555 0.519401 21,000 26 399 -64
2019-10-14 08:55:25 GMT 50.157337 0.507078 21,000 32 397 0
2019-10-14 08:55:21 GMT 50.157337 0.507078 21,000 74 367 0
2019-10-14 08:55:16 GMT 50.150345 0.497999 21,000 47 389 0
2019-10-14 08:55:13 GMT 50.148239 0.494818 21,000 54 384 0
2019-10-14 08:55:10 GMT 50.144115 0.487778 21,000 59 380 0
2019-10-14 08:55:07 GMT 50.141235 0.482097 21,000 53 385 -64
2019-10-14 08:55:04 GMT 50.138622 0.476198 21,000 65 374 -64
2019-10-14 08:55:01 GMT 50.135193 0.467280 21,000 62 378 0
2019-10-14 08:54:57 GMT 50.132339 0.458011 21,000 116 334 0
2019-10-14 08:54:54 GMT 50.130661 0.451596 21,000 73 368 0
2019-10-14 08:54:50 GMT 50.128418 0.440465 21,000 93 353 64
2019-10-14 08:54:47 GMT 50.127312 0.432772 21,000 79 363 0
2019-10-14 08:54:44 GMT 50.126564 0.425572 21,000 83 360 64
2019-10-14 08:54:40 GMT 50.126038 0.415746 21,000 93 353 64
2019-10-14 08:54:36 GMT 50.126175 0.401507 21,000 94 353 64
2019-10-14 08:54:33 GMT 50.126377 0.397957 21,000 96 351 64
2019-10-14 08:54:30 GMT 50.128098 0.382642 21,000 105 344 0
2019-10-14 08:54:27 GMT 50.128098 0.382642 21,000 106 342 0
2019-10-14 08:54:24 GMT 50.129837 0.373174 21,000 109 340 0
2019-10-14 08:54:21 GMT 50.131165 0.367681 21,000 111 338 0
2019-10-14 08:54:18 GMT 50.132858 0.361392 21,000 115 335 0
2019-10-14 08:54:15 GMT 50.134621 0.355794 21,000 146 309 0
2019-10-14 08:54:12 GMT 50.136887 0.349611 21,000 123 327 0
2019-10-14 08:54:09 GMT 50.140392 0.341393 21,000 126 323 0
2019-10-14 08:54:05 GMT 50.143696 0.334786 21,000 127 322 0
2019-10-14 08:54:02 GMT 50.149475 0.325036 21,000 133 317 64
2019-10-14 08:53:59 GMT 50.149475 0.325036 21,000 138 313 64
2019-10-14 08:53:56 GMT 50.152634 0.320459 21,000 141 311 0
2019-10-14 08:53:52 GMT 50.156845 0.314990 21,000 144 310 0
2019-10-14 08:53:49 GMT 50.165066 0.305984 21,000 146 309 64
2019-10-14 08:53:45 GMT 50.165066 0.305984 21,000 146 309 64
2019-10-14 08:53:42 GMT 50.170990 0.299883 21,000 146 309 0
2019-10-14 08:53:36 GMT 50.175072 0.295666 21,000 146 309 0
2019-10-14 08:53:33 GMT 50.180332 0.290321 21,000 146 310 0
2019-10-14 08:53:30 GMT 50.182983 0.287596 21,000 146 310 0
2019-10-14 08:53:25 GMT 50.188751 0.281741 21,000 146 310 0
2019-10-14 08:53:22 GMT 50.196159 0.274213 21,000 146 310 0
2019-10-14 08:53:16 GMT 50.199047 0.271318 21,000 146 309 0
2019-10-14 08:53:13 GMT 50.203629 0.266708 21,000 146 309 0
2019-10-14 08:53:10 GMT 50.207195 0.263078 21,000 146 309 -64
2019-10-14 08:53:04 GMT 50.214409 0.255803 21,000 146 309 -64
2019-10-14 08:53:01 GMT 50.218693 0.251349 21,000 146 310 -64
2019-10-14 08:52:57 GMT 50.222305 0.247698 21,025 146 310 -64
2019-10-14 08:52:54 GMT 50.226608 0.243362 21,000 146 310 -64
2019-10-14 08:52:49 GMT 50.237183 0.232592 21,025 146 310 0
2019-10-14 08:52:45 GMT 50.237640 0.232086 21,025 146 310 0
2019-10-14 08:52:42 GMT 50.240067 0.229629 21,000 146 310 0
2019-10-14 08:52:39 GMT 50.244110 0.225442 21,000 146 310 0
2019-10-14 08:52:35 GMT 50.250092 0.219293 21,000 146 309 0
2019-10-14 08:52:31 GMT 50.255096 0.214159 21,000 146 309 0
2019-10-14 08:52:28 GMT 50.257519 0.211710 21,000 146 309 0
2019-10-14 08:52:25 GMT 50.261581 0.207584 21,000 147 310 64
2019-10-14 08:52:22 GMT 50.264732 0.204435 21,000 147 310 128
2019-10-14 08:52:18 GMT 50.269318 0.199922 21,000 151 307 0
2019-10-14 08:52:12 GMT 50.277023 0.193152 21,000 154 304 0
2019-10-14 08:52:08 GMT 50.282654 0.189291 21,000 158 302 0
2019-10-14 08:52:05 GMT 50.285263 0.187733 21,000 167 296 0
2019-10-14 08:52:01 GMT 50.291035 0.184912 21,000 167 296 0
2019-10-14 08:51:57 GMT 50.295319 0.183353 21,000 169 295 0
2019-10-14 08:51:54 GMT 50.301228 0.181794 21,000 183 290 0
2019-10-14 08:51:51 GMT 50.303928 0.181349 21,000 177 292 0
2019-10-14 08:51:48 GMT 50.309052 0.180985 21,000 182 291 0
2019-10-14 08:51:44 GMT 50.314407 0.181058 21,000 185 290 0
2019-10-14 08:51:41 GMT 50.319477 0.181720 21,000 189 289 0
2019-10-14 08:51:37 GMT 50.322689 0.182388 21,000 192 288 0
2019-10-14 08:51:34 GMT 50.327133 0.183660 21,000 194 288 0
2019-10-14 08:51:30 GMT 50.332558 0.185803 21,000 213 289 0
2019-10-14 08:51:27 GMT 50.338303 0.188936 21,000 202 287 0
2019-10-14 08:51:23 GMT 50.341030 0.190628 21,000 206 287 0
2019-10-14 08:51:20 GMT 50.345360 0.193745 21,000 209 287 0
2019-10-14 08:51:17 GMT 50.348152 0.196121 21,000 215 289 0
2019-10-14 08:51:14 GMT 50.352081 0.199778 21,000 213 289 0
2019-10-14 08:51:10 GMT 50.356888 0.205054 21,000 220 290 0
2019-10-14 08:51:07 GMT 50.359406 0.208162 21,000 244 301 0
2019-10-14 08:51:03 GMT 50.364212 0.214956 21,000 225 293 64
2019-10-14 08:50:59 GMT 50.367428 0.220098 21,000 229 294 0
2019-10-14 08:50:56 GMT 50.369568 0.223958 21,000 231 296 0
2019-10-14 08:50:52 GMT 50.373245 0.231455 21,000 236 298 64
2019-10-14 08:50:49 GMT 50.375244 0.236061 21,000 247 303 0
2019-10-14 08:50:46 GMT 50.377666 0.242367 21,000 241 300 0
2019-10-14 08:50:43 GMT 50.379250 0.247044 21,000 294 343 64
2019-10-14 08:50:40 GMT 50.380928 0.252537 21,000 294 343 64
2019-10-14 08:50:36 GMT 50.383579 0.263226 21,000 254 308 0
2019-10-14 08:50:32 GMT 50.385223 0.272273 21,000 257 311 0
2019-10-14 08:50:28 GMT 50.386139 0.278889 21,000 262 314 0
2019-10-14 08:50:25 GMT 50.386963 0.287379 21,000 263 314 0
2019-10-14 08:50:22 GMT 50.387257 0.293365 21,000 269 319 -64
2019-10-14 08:50:19 GMT 50.387421 0.301184 21,000 272 322 0
2019-10-14 08:50:16 GMT 50.387329 0.305883 21,000 273 323 0
2019-10-14 08:50:13 GMT 50.386826 0.315206 21,000 276 325 0
2019-10-14 08:50:10 GMT 50.386276 0.320844 21,000 282 330 0
2019-10-14 08:50:06 GMT 50.384811 0.331180 21,000 283 332 -64
2019-10-14 08:50:03 GMT 50.382648 0.341838 21,000 290 339 0
2019-10-14 08:50:00 GMT 50.382065 0.344118 21,000 293 342 64
2019-10-14 08:49:57 GMT 50.380051 0.351418 21,000 299 348 0
2019-10-14 08:49:54 GMT 50.378132 0.357204 21,000 299 348 0
2019-10-14 08:49:50 GMT 50.374783 0.365889 21,000 307 357 0
2019-10-14 08:49:44 GMT 50.369064 0.377872 21,000 314 364 0
2019-10-14 08:49:41 GMT 50.361328 0.390312 21,000 317 367 0
2019-10-14 08:49:35 GMT 50.357986 0.394930 21,000 325 375 -64
2019-10-14 08:49:32 GMT 50.353928 0.399887 21,000 327 376 0
2019-10-14 08:49:28 GMT 50.340958 0.413577 21,000 328 376 0
2019-10-14 08:49:24 GMT 50.340958 0.413577 21,000 328 376 0
2019-10-14 08:49:20 GMT 50.335739 0.418854 21,000 328 376 0
2019-10-14 08:49:14 GMT 50.326996 0.427744 21,000 328 376 0
2019-10-14 08:49:10 GMT 50.319992 0.434827 21,000 328 376 0
2019-10-14 08:49:04 GMT 50.313286 0.441606 21,000 328 376 -64
2019-10-14 08:49:01 GMT 50.308582 0.446357 21,000 348 388 0
2019-10-14 08:48:58 GMT 50.303371 0.451627 21,000 328 376 -64
2019-10-14 08:48:55 GMT 50.298668 0.456304 21,000 328 375 -64
2019-10-14 08:48:52 GMT 50.295784 0.459273 21,000 327 375 0
2019-10-14 08:48:49 GMT 50.291126 0.464024 21,000 328 375 -64
2019-10-14 08:48:44 GMT 50.282375 0.472858 21,000 327 375 -64
2019-10-14 08:48:39 GMT 50.276871 0.478484 21,000 327 375 0
2019-10-14 08:48:36 GMT 50.266983 0.488602 21,000 327 376 0
2019-10-14 08:48:32 GMT 50.266983 0.488602 21,000 327 375 0
2019-10-14 08:48:29 GMT 50.261765 0.493951 21,000 327 375 -64
2019-10-14 08:48:25 GMT 50.255997 0.499950 21,000 327 374 -64
2019-10-14 08:48:22 GMT 50.251698 0.504480 21,000 327 375 0
2019-10-14 08:48:18 GMT 50.246750 0.509491 21,000 328 375 64
2019-10-14 08:48:14 GMT 50.235306 0.519827 21,000 331 377 0
2019-10-14 08:48:11 GMT 50.235306 0.519827 21,000 335 381 0
2019-10-14 08:48:08 GMT 50.231728 0.522296 21,000 340 383 0
2019-10-14 08:48:03 GMT 50.223022 0.526973 21,000 346 387 0
2019-10-14 08:48:00 GMT 50.216354 0.529295 21,000 356 392 0
2019-10-14 08:47:57 GMT 50.213154 0.530090 21,000 359 394 0
2019-10-14 08:47:53 GMT 50.204132 0.531102 21,000 0 394 0
2019-10-14 08:47:50 GMT 50.200470 0.531030 21,000 2 395 0
2019-10-14 08:47:47 GMT 50.193878 0.530235 21,000 13 398 -64
2019-10-14 08:47:42 GMT 50.184151 0.527344 21,000 13 398 -64
2019-10-14 08:47:39 GMT 50.178516 0.524671 21,000 28 398 -64
2019-10-14 08:47:36 GMT 50.170975 0.519995 21,000 24 399 -64
2019-10-14 08:47:31 GMT 50.164459 0.514650 21,000 31 397 0
2019-10-14 08:47:27 GMT 50.159225 0.509419 21,000 33 397 0
2019-10-14 08:47:23 GMT 50.149887 0.497577 21,000 43 394 64
2019-10-14 08:47:20 GMT 50.149887 0.497577 21,000 47 391 64
2019-10-14 08:47:17 GMT 50.145325 0.490302 21,000 48 391 64
2019-10-14 08:47:14 GMT 50.142532 0.485106 21,000 51 389 64
2019-10-14 08:47:11 GMT 50.139771 0.479279 21,000 56 386 64
2019-10-14 08:47:08 GMT 50.135456 0.468478 21,000 61 382 0
2019-10-14 08:47:05 GMT 50.133682 0.463160 21,000 72 373 0
2019-10-14 08:47:02 GMT 50.131268 0.454671 21,000 71 375 0
2019-10-14 08:46:58 GMT 50.129105 0.444946 21,000 74 371 0
2019-10-14 08:46:55 GMT 50.127357 0.434108 21,000 82 364 0
2019-10-14 08:46:52 GMT 50.126953 0.430491 21,000 81 365 0
2019-10-14 08:46:49 GMT 50.126331 0.423790 21,000 137 312 0
2019-10-14 08:46:46 GMT 50.125946 0.414951 21,000 92 354 0
2019-10-14 08:46:41 GMT 50.126038 0.402736 21,000 95 350 0
2019-10-14 08:46:38 GMT 50.126564 0.394172 21,000 99 347 -64
2019-10-14 08:46:35 GMT 50.127411 0.386834 21,000 101 345 0
2019-10-14 08:46:32 GMT 50.128986 0.376727 21,000 104 342 0
2019-10-14 08:46:29 GMT 50.132034 0.363488 21,000 112 335 64
2019-10-14 08:46:25 GMT 50.132034 0.363488 21,000 114 334 0
2019-10-14 08:46:21 GMT 50.134525 0.355274 21,000 119 329 64
2019-10-14 08:46:18 GMT 50.137390 0.347443 21,000 120 328 64
2019-10-14 08:46:14 GMT 50.139877 0.341615 21,000 125 323 0
2019-10-14 08:46:10 GMT 50.143661 0.333854 21,000 131 318 0
2019-10-14 08:46:07 GMT 50.145996 0.329734 21,000 146 305 0
2019-10-14 08:46:04 GMT 50.150894 0.322073 21,000 135 314 0
2019-10-14 08:46:00 GMT 50.155289 0.316218 21,000 142 308 -64
2019-10-14 08:45:57 GMT 50.157532 0.313544 21,000 144 306 0
2019-10-14 08:45:53 GMT 50.161194 0.309424 21,025 138 332 0
2019-10-14 08:45:50 GMT 50.166367 0.304076 21,000 146 304 0
2019-10-14 08:45:47 GMT 50.168747 0.301690 21,000 146 304 0
2019-10-14 08:45:43 GMT 50.173210 0.297076 21,000 146 305 0
2019-10-14 08:45:40 GMT 50.176983 0.293290 21,000 146 305 0
2019-10-14 08:45:36 GMT 50.181728 0.288465 21,000 147 305 0
2019-10-14 08:45:33 GMT 50.188339 0.281784 21,000 146 305 0
2019-10-14 08:45:29 GMT 50.190948 0.279139 21,000 146 305 0
2019-10-14 08:45:26 GMT 50.194950 0.274955 21,000 145 307 64
2019-10-14 08:45:21 GMT 50.199829 0.269599 21,000 144 308 0
2019-10-14 08:45:18 GMT 50.202621 0.266418 21,000 142 309 0
2019-10-14 08:45:15 GMT 50.206493 0.261816 21,000 138 320 -64
2019-10-14 08:45:12 GMT 50.209854 0.257600 21,000 138 320 -64
2019-10-14 08:45:08 GMT 50.215015 0.250904 21,000 139 317 -64
2019-10-14 08:45:02 GMT 50.220787 0.243035 21,000 138 322 -64
2019-10-14 08:44:59 GMT 50.223907 0.238730 21,000 138 323 -64
2019-10-14 08:44:56 GMT 50.227909 0.233163 21,025 138 352 0
2019-10-14 08:44:52 GMT 50.231960 0.227521 21,025 138 332 0
2019-10-14 08:44:49 GMT 50.235397 0.222835 21,025 138 331 -64
2019-10-14 08:44:45 GMT 50.240433 0.215824 21,025 138 339 0
2019-10-14 08:44:42 GMT 50.243179 0.211993 21,025 138 337 0
2019-10-14 08:44:39 GMT 50.246670 0.207181 21,025 138 344 0
2019-10-14 08:44:35 GMT 50.254486 0.196381 21,025 138 350 0
2019-10-14 08:44:32 GMT 50.255699 0.194710 20,950 138 382 0
2019-10-14 08:44:29 GMT 50.259293 0.189659 21,000 138 353 64
2019-10-14 08:44:25 GMT 50.263687 0.183587 21,000 138 356 64
2019-10-14 08:44:22 GMT 50.267578 0.178166 20,950 138 382 0
2019-10-14 08:44:19 GMT 50.271297 0.172960 21,000 138 365 64
2019-10-14 08:44:15 GMT 50.277302 0.164572 21,000 138 365 64
2019-10-14 08:44:12 GMT 50.279861 0.161009 21,000 138 382 64
2019-10-14 08:44:09 GMT 50.284470 0.154551 21,000 138 371 64
2019-10-14 08:44:06 GMT 50.288315 0.149183 21,000 138 376 0
2019-10-14 08:44:03 GMT 50.295364 0.139333 21,000 138 379 0
2019-10-14 08:44:00 GMT 50.295364 0.139333 21,000 138 382 0
2019-10-14 08:43:57 GMT 50.304859 0.126194 21,000 138 382 0
2019-10-14 08:43:53 GMT 50.304859 0.126194 21,000 138 382 0
2019-10-14 08:43:50 GMT 50.310379 0.118464 21,000 138 382 64
2019-10-14 08:43:47 GMT 50.313034 0.114850 21,000 138 382 64
2019-10-14 08:43:44 GMT 50.316452 0.110086 21,000 138 382 64
2019-10-14 08:43:41 GMT 50.321758 0.102737 21,000 138 382 64
2019-10-14 08:43:37 GMT 50.326218 0.096492 21,000 138 381 192
2019-10-14 08:43:34 GMT 50.330185 0.091008 21,000 138 383 64
2019-10-14 08:43:31 GMT 50.334419 0.085144 20,975 138 381 256
2019-10-14 08:43:28 GMT 50.338898 0.078856 20,975 138 382 576
2019-10-14 08:43:25 GMT 50.341778 0.074826 20,950 138 382 576
2019-10-14 08:43:22 GMT 50.345764 0.069315 20,650 138 383 1280
2019-10-14 08:43:18 GMT 50.350250 0.063097 20,900 138 383 1088
2019-10-14 08:43:15 GMT 50.356339 0.054643 20,825 138 383 1216
2019-10-14 08:43:12 GMT 50.359234 0.050552 20,750 138 383 1600
2019-10-14 08:43:06 GMT 50.366680 0.040234 20,675 138 383 1920
2019-10-14 08:43:03 GMT 50.370918 0.034369 20,600 138 383 1920
2019-10-14 08:43:00 GMT 50.381790 0.019226 20,375 138 384 1856
2019-10-14 08:42:56 GMT 50.381790 0.019226 20,300 138 384 1792
2019-10-14 08:42:53 GMT 50.383392 0.016985 20,250 138 384 1664
2019-10-14 08:42:50 GMT 50.387863 0.010689 20,200 138 384 1600
2019-10-14 08:42:45 GMT 50.396072 -0.000723 20,050 138 383 1984
2019-10-14 08:42:42 GMT 50.404297 -0.012174 19,900 138 383 2048
2019-10-14 08:42:39 GMT 50.404297 -0.012174 19,750 138 383 2176
2019-10-14 08:42:36 GMT 50.406948 -0.015811 19,275 138 383 1920
2019-10-14 08:42:33 GMT 50.410114 -0.020265 19,375 138 381 1792
2019-10-14 08:42:30 GMT 50.415161 -0.027321 19,525 138 383 2048
2019-10-14 08:42:27 GMT 50.418587 -0.032068 19,450 138 383 1920
2019-10-14 08:42:24 GMT 50.423080 -0.038380 19,075 138 381 1728
2019-10-14 08:42:21 GMT 50.425735 -0.042066 19,200 138 383 1792
2019-10-14 08:42:17 GMT 50.434414 -0.054189 19,025 138 381 1664
2019-10-14 08:42:14 GMT 50.435760 -0.056016 18,625 138 373 1920
2019-10-14 08:42:11 GMT 50.445961 -0.070298 18,850 138 380 1664
2019-10-14 08:42:08 GMT 50.445961 -0.070298 18,750 138 379 1664
2019-10-14 08:42:05 GMT 50.447800 -0.072857 18,725 138 371 1600
2019-10-14 08:42:01 GMT 50.452515 -0.079434 18,700 138 378 1664
2019-10-14 08:41:58 GMT 50.458237 -0.087457 18,350 138 376 1728
2019-10-14 08:41:55 GMT 50.460846 -0.091071 18,475 138 376 1728
2019-10-14 08:41:52 GMT 50.463696 -0.095091 18,350 138 375 1728
2019-10-14 08:41:49 GMT 50.472446 -0.107414 18,250 138 373 1920
2019-10-14 08:41:46 GMT 50.472446 -0.107414 18,225 138 373 1856
2019-10-14 08:41:43 GMT 50.475521 -0.111719 18,125 138 373 1984
2019-10-14 08:41:40 GMT 50.480175 -0.118177 18,050 138 373 1920
2019-10-14 08:41:36 GMT 50.485016 -0.125042 17,875 138 372 1536
2019-10-14 08:41:33 GMT 50.488369 -0.129757 17,500 138 370 1536
2019-10-14 08:41:29 GMT 50.493488 -0.136884 17,725 138 371 1536
2019-10-14 08:41:26 GMT 50.499390 -0.145135 17,625 138 369 1536
2019-10-14 08:41:23 GMT 50.500900 -0.147304 17,550 138 369 1536
2019-10-14 08:41:20 GMT 50.505779 -0.154106 17,550 138 369 1536
2019-10-14 08:41:17 GMT 50.511612 -0.162265 17,475 138 368 1536
2019-10-14 08:41:14 GMT 50.513367 -0.164795 17,350 138 368 1536
2019-10-14 08:41:10 GMT 50.517975 -0.171179 17,300 138 368 1536
2019-10-14 08:41:07 GMT 50.522278 -0.177227 17,075 138 368 1536
2019-10-14 08:41:03 GMT 50.527863 -0.185105 17,075 138 367 1600
2019-10-14 08:41:00 GMT 50.531151 -0.189737 17,025 138 366 1600
2019-10-14 08:40:57 GMT 50.535152 -0.195378 16,575 138 361 1472
2019-10-14 08:40:54 GMT 50.539204 -0.201020 16,850 138 365 1536
2019-10-14 08:40:51 GMT 50.542183 -0.205251 16,825 138 364 1536
2019-10-14 08:40:46 GMT 50.560364 -0.230930 16,375 138 361 1536
2019-10-14 08:40:40 GMT 50.561131 -0.231975 16,475 138 361 1536
2019-10-14 08:40:37 GMT 50.561131 -0.231975 16,425 138 361 1536
2019-10-14 08:40:34 GMT 50.567089 -0.240437 16,325 138 361 1536
2019-10-14 08:40:28 GMT 50.570801 -0.245675 16,150 138 361 1600
2019-10-14 08:40:25 GMT 50.574535 -0.250904 16,025 138 359 1600
2019-10-14 08:40:22 GMT 50.577759 -0.255432 16,025 138 359 1600
2019-10-14 08:40:19 GMT 50.581474 -0.260703 16,025 138 359 1600
2019-10-14 08:40:16 GMT 50.585896 -0.266938 15,875 138 356 1600
2019-10-14 08:40:13 GMT 50.588829 -0.271095 15,825 138 354 1600
2019-10-14 08:40:10 GMT 50.594231 -0.278667 15,775 138 356 1600
2019-10-14 08:40:07 GMT 50.597675 -0.283492 15,650 137 354 1536
2019-10-14 08:40:04 GMT 50.600609 -0.287649 15,575 138 354 1536
2019-10-14 08:40:00 GMT 50.605728 -0.294824 15,450 137 354 1536
2019-10-14 08:39:57 GMT 50.610580 -0.301690 15,400 138 353 1600
2019-10-14 08:39:54 GMT 50.613007 -0.305160 15,350 138 351 1664
2019-10-14 08:39:51 GMT 50.616154 -0.309621 15,300 138 353 1536
2019-10-14 08:39:47 GMT 50.620998 -0.316451 15,225 138 351 1536
2019-10-14 08:39:44 GMT 50.623928 -0.320534 15,000 138 351 1664
2019-10-14 08:39:41 GMT 50.628723 -0.327363 14,975 138 351 1664
2019-10-14 08:39:38 GMT 50.631657 -0.331520 14,775 138 351 1664
2019-10-14 08:39:35 GMT 50.634796 -0.335950 14,825 138 351 1664
2019-10-14 08:39:31 GMT 50.644646 -0.349929 14,625 137 350 1664
2019-10-14 08:39:28 GMT 50.644646 -0.349929 14,675 137 350 1664
2019-10-14 08:39:25 GMT 50.647999 -0.354680 14,625 137 350 1664
2019-10-14 08:39:22 GMT 50.651138 -0.359152 14,500 137 350 1664
2019-10-14 08:39:19 GMT 50.655258 -0.364998 14,425 137 351 1664
2019-10-14 08:39:13 GMT 50.662216 -0.374908 14,200 137 351 1664
2019-10-14 08:39:10 GMT 50.665604 -0.379751 14,200 137 351 1728
2019-10-14 08:39:06 GMT 50.671417 -0.387991 14,075 137 353 1728
2019-10-14 08:39:03 GMT 50.674301 -0.392093 14,025 137 353 1664
2019-10-14 08:39:00 GMT 50.677975 -0.397263 13,925 138 354 1664
2019-10-14 08:38:57 GMT 50.681625 -0.402411 13,850 138 353 1600
2019-10-14 08:38:54 GMT 50.686020 -0.408498 13,625 145 348 1536
2019-10-14 08:38:50 GMT 50.689754 -0.413513 13,675 141 350 1536
2019-10-14 08:38:46 GMT 50.694874 -0.419693 13,525 145 348 1536
2019-10-14 08:38:43 GMT 50.700134 -0.425568 13,500 147 346 1536
2019-10-14 08:38:39 GMT 50.704193 -0.429655 13,425 148 345 1600
2019-10-14 08:38:36 GMT 50.712387 -0.437523 13,325 148 345 1600
2019-10-14 08:38:33 GMT 50.712387 -0.437523 13,200 148 345 1536
2019-10-14 08:38:30 GMT 50.716187 -0.441086 12,475 148 340 1536
2019-10-14 08:38:27 GMT 50.721130 -0.445837 13,075 148 345 1536
2019-10-14 08:38:24 GMT 50.725227 -0.449753 12,950 148 345 1536
2019-10-14 08:38:21 GMT 50.730675 -0.454941 12,925 148 345 1536
2019-10-14 08:38:18 GMT 50.733376 -0.457611 12,000 149 340 64
2019-10-14 08:38:15 GMT 50.736633 -0.460739 12,700 148 344 1472
2019-10-14 08:38:12 GMT 50.741226 -0.465286 12,675 148 344 1472
2019-10-14 08:38:09 GMT 50.744476 -0.468478 12,150 148 340 960
2019-10-14 08:38:05 GMT 50.749832 -0.473823 12,575 147 342 1536
2019-10-14 08:38:02 GMT 50.755737 -0.479613 12,500 148 341 1536
2019-10-14 08:37:59 GMT 50.763493 -0.487213 12,200 148 340 1024
2019-10-14 08:37:55 GMT 50.763493 -0.487213 12,250 148 340 1472
2019-10-14 08:37:52 GMT 50.769104 -0.492677 12,150 148 340 1152
2019-10-14 08:37:49 GMT 50.773407 -0.496760 12,150 148 340 1024
2019-10-14 08:37:45 GMT 50.781788 -0.504684 12,075 149 339 576
2019-10-14 08:37:39 GMT 50.785000 -0.507736 12,000 149 339 0
2019-10-14 08:37:36 GMT 50.791214 -0.513611 12,025 149 339 128
2019-10-14 08:37:33 GMT 50.793915 -0.516135 12,000 149 339 0
2019-10-14 08:37:30 GMT 50.797989 -0.519867 12,000 149 339 0
2019-10-14 08:37:27 GMT 50.803341 -0.524979 12,000 149 339 0
2019-10-14 08:37:24 GMT 50.805771 -0.527195 12,000 149 339 0
2019-10-14 08:37:20 GMT 50.810928 -0.531998 12,000 149 340 0
2019-10-14 08:37:17 GMT 50.814972 -0.535806 12,000 149 339 0
2019-10-14 08:37:14 GMT 50.823624 -0.543823 12,000 149 340 0
2019-10-14 08:37:11 GMT 50.823624 -0.543823 12,000 149 340 64
2019-10-14 08:37:08 GMT 50.827423 -0.547386 12,000 149 340 0
2019-10-14 08:37:05 GMT 50.835526 -0.554958 12,000 149 340 -64
2019-10-14 08:37:02 GMT 50.835526 -0.554958 12,000 149 340 64
2019-10-14 08:36:58 GMT 50.842026 -0.560971 12,000 149 339 0
2019-10-14 08:36:55 GMT 50.844772 -0.563420 12,000 149 340 0
2019-10-14 08:36:52 GMT 50.849121 -0.567429 12,000 149 340 -64
2019-10-14 08:36:49 GMT 50.852921 -0.570918 12,000 149 340 0
2019-10-14 08:36:46 GMT 50.869720 -0.586432 12,000 149 339 64
2019-10-14 08:36:41 GMT 50.869720 -0.586432 12,000 149 339 -64
2019-10-14 08:36:38 GMT 50.871075 -0.587692 12,000 149 339 0
2019-10-14 08:36:35 GMT 50.872925 -0.589402 12,000 149 339 0
2019-10-14 08:36:32 GMT 50.876175 -0.592445 12,000 149 338 0
2019-10-14 08:36:29 GMT 50.880756 -0.596695 12,000 149 339 64
2019-10-14 08:36:26 GMT 50.886719 -0.602264 11,325 148 341 64
2019-10-14 08:36:22 GMT 50.891281 -0.606623 12,000 149 339 0
2019-10-14 08:36:19 GMT 50.894257 -0.609436 12,000 149 339 0
2019-10-14 08:36:16 GMT 50.897736 -0.612710 11,350 149 339 64
2019-10-14 08:36:13 GMT 50.901798 -0.616531 12,000 149 340 64
2019-10-14 08:36:10 GMT 50.905010 -0.619583 12,000 149 340 64
2019-10-14 08:36:07 GMT 50.910187 -0.624439 12,000 148 340 0
2019-10-14 08:36:04 GMT 50.918793 -0.632753 12,000 148 341 64
2019-10-14 08:36:01 GMT 50.918793 -0.632753 12,000 148 341 64
2019-10-14 08:35:58 GMT 50.922840 -0.636673 12,000 148 340 64
2019-10-14 08:35:54 GMT 50.927170 -0.640793 12,000 148 341 64
2019-10-14 08:35:51 GMT 50.932846 -0.646189 12,000 148 341 64
2019-10-14 08:35:48 GMT 50.935501 -0.648787 12,000 148 339 128
2019-10-14 08:35:45 GMT 50.939804 -0.652870 11,975 149 338 128
2019-10-14 08:35:42 GMT 50.943558 -0.656359 11,975 150 333 512
2019-10-14 08:35:39 GMT 50.950516 -0.662446 11,950 150 329 768
2019-10-14 08:35:36 GMT 50.951286 -0.663147 11,850 154 322 1216
2019-10-14 08:35:33 GMT 50.961525 -0.670547 11,825 157 318 1408
2019-10-14 08:35:29 GMT 50.961525 -0.670547 11,650 193 291 1280
2019-10-14 08:35:26 GMT 50.964832 -0.672302 11,725 163 312 1408
2019-10-14 08:35:23 GMT 50.970154 -0.674249 11,600 172 305 1472
2019-10-14 08:35:20 GMT 50.974934 -0.675201 11,550 176 302 1472
2019-10-14 08:35:17 GMT 50.977982 -0.675436 11,450 183 298 1344
2019-10-14 08:35:14 GMT 50.982101 -0.675354 11,375 187 295 1280
2019-10-14 08:35:11 GMT 50.989643 -0.673523 11,325 196 289 1280
2019-10-14 08:35:08 GMT 50.994003 -0.671576 11,275 200 287 1216
2019-10-14 08:35:05 GMT 50.994003 -0.671576 10,775 206 271 1536
2019-10-14 08:35:02 GMT 50.998211 -0.669022 11,150 202 285 1344
2019-10-14 08:34:58 GMT 51.001785 -0.666454 11,075 206 281 1472
2019-10-14 08:34:55 GMT 51.005997 -0.663262 11,025 206 278 1408
2019-10-14 08:34:51 GMT 51.010406 -0.659943 10,525 207 259 1600
2019-10-14 08:34:48 GMT 51.014282 -0.656953 10,250 207 256 512
2019-10-14 08:34:44 GMT 51.018600 -0.653687 10,775 206 269 1472
2019-10-14 08:34:40 GMT 51.022842 -0.650495 10,675 206 265 1600
2019-10-14 08:34:37 GMT 51.025497 -0.648416 10,550 207 262 1536
2019-10-14 08:34:33 GMT 51.030716 -0.644333 10,425 207 259 1600
2019-10-14 08:34:30 GMT 51.033543 -0.642166 10,400 207 258 1600
2019-10-14 08:34:27 GMT 51.036301 -0.639954 10,325 207 253 1536
2019-10-14 08:34:24 GMT 51.040100 -0.636984 10,225 207 249 832
2019-10-14 08:34:21 GMT 51.044109 -0.633850 10,150 207 249 1152
2019-10-14 08:34:18 GMT 51.046158 -0.632172 10,075 207 249 896
2019-10-14 08:34:15 GMT 51.049255 -0.629784 9,800 207 249 832
2019-10-14 08:34:12 GMT 51.053879 -0.626221 10,025 207 251 256
2019-10-14 08:34:09 GMT 51.056351 -0.624216 10,000 207 252 0
2019-10-14 08:34:06 GMT 51.059280 -0.621989 10,000 207 254 128
2019-10-14 08:34:02 GMT 51.064362 -0.618055 10,000 206 253 64
2019-10-14 08:33:56 GMT 51.069397 -0.614121 9,975 207 256 128
2019-10-14 08:33:53 GMT 51.072601 -0.611649 10,000 207 255 128
2019-10-14 08:33:50 GMT 51.077675 -0.607605 9,975 207 256 128
2019-10-14 08:33:47 GMT 51.078735 -0.606772 9,975 207 256 128
2019-10-14 08:33:44 GMT 51.082375 -0.603943 9,975 207 256 128
2019-10-14 08:33:41 GMT 51.086426 -0.600833 9,975 207 256 320
2019-10-14 08:33:38 GMT 51.090637 -0.597493 9,950 207 256 960
2019-10-14 08:33:35 GMT 51.091732 -0.596619 9,900 207 256 896
2019-10-14 08:33:32 GMT 51.094246 -0.594635 9,875 207 253 960
2019-10-14 08:33:29 GMT 51.098740 -0.591109 9,850 207 255 960
2019-10-14 08:33:26 GMT 51.104645 -0.586507 9,775 207 254 960
2019-10-14 08:33:23 GMT 51.104645 -0.586507 9,425 208 251 1344
2019-10-14 08:33:20 GMT 51.107162 -0.584502 9,575 207 252 960
2019-10-14 08:33:17 GMT 51.113613 -0.579376 9,625 207 252 960
2019-10-14 08:33:11 GMT 51.117599 -0.576188 9,375 208 249 1728
2019-10-14 08:33:08 GMT 51.119659 -0.574481 9,475 208 250 1088
2019-10-14 08:33:05 GMT 51.123154 -0.571671 9,425 208 251 1216
2019-10-14 08:33:02 GMT 51.126251 -0.569062 9,000 208 251 1216
2019-10-14 08:32:59 GMT 51.129765 -0.566177 9,250 208 249 1856
2019-10-14 08:32:54 GMT 51.134655 -0.562134 9,125 208 246 2432
2019-10-14 08:32:51 GMT 51.137447 -0.559769 9,025 208 245 2752
2019-10-14 08:32:48 GMT 51.140285 -0.557404 8,950 208 244 2880
2019-10-14 08:32:44 GMT 51.145454 -0.553131 8,700 208 243 3328
2019-10-14 08:32:41 GMT 51.147675 -0.551246 8,600 208 244 3392
2019-10-14 08:32:38 GMT 51.150669 -0.548782 8,525 208 245 3712
2019-10-14 08:32:35 GMT 51.154129 -0.546050 8,125 207 247 3904
2019-10-14 08:32:29 GMT 51.160072 -0.541306 7,725 205 256 3648
2019-10-14 08:32:26 GMT 51.162540 -0.539398 7,675 206 252 4096
2019-10-14 08:32:23 GMT 51.166775 -0.536270 7,350 205 253 3968
2019-10-14 08:32:20 GMT 51.169334 -0.534363 7,175 205 256 3648
2019-10-14 08:32:17 GMT 51.175758 -0.529633 7,025 205 257 3200
2019-10-14 08:32:14 GMT 51.175758 -0.529633 6,850 205 257 3200
2019-10-14 08:32:11 GMT 51.179855 -0.526601 6,125 206 257 2816
2019-10-14 08:32:07 GMT 51.183113 -0.524139 6,375 206 257 2240
2019-10-14 08:32:04 GMT 51.186722 -0.521405 6,400 206 256 1984
2019-10-14 08:32:01 GMT 51.192936 -0.516663 6,275 206 255 1280
2019-10-14 08:31:58 GMT 51.192936 -0.516663 6,250 206 255 64
2019-10-14 08:31:54 GMT 51.196976 -0.513537 6,175 206 255 512
2019-10-14 08:31:51 GMT 51.200153 -0.511093 6,125 206 255 64
2019-10-14 08:31:48 GMT 51.203751 -0.508266 6,100 206 255 0
2019-10-14 08:31:45 GMT 51.206772 -0.505965 6,125 206 255 0
2019-10-14 08:31:42 GMT 51.209747 -0.503664 6,125 206 255 0
2019-10-14 08:31:39 GMT 51.213745 -0.500565 6,125 207 254 0
2019-10-14 08:31:36 GMT 51.216934 -0.498096 6,125 206 253 0
2019-10-14 08:31:33 GMT 51.219452 -0.496092 6,125 207 254 -64
2019-10-14 08:31:30 GMT 51.222427 -0.493791 6,125 206 253 0
2019-10-14 08:31:27 GMT 51.226826 -0.490341 6,125 206 253 0
2019-10-14 08:31:24 GMT 51.232086 -0.486219 6,125 207 252 0
2019-10-14 08:31:18 GMT 51.235252 -0.483780 6,125 207 253 0
2019-10-14 08:31:15 GMT 51.238815 -0.481023 6,125 206 253 0
2019-10-14 08:31:11 GMT 51.243027 -0.477683 6,125 206 253 0
2019-10-14 08:31:08 GMT 51.250011 -0.472336 6,125 206 253 0
2019-10-14 08:31:05 GMT 51.250011 -0.472336 6,125 206 253 0
2019-10-14 08:31:02 GMT 51.251450 -0.471150 6,125 206 253 0
2019-10-14 08:30:59 GMT 51.254620 -0.468750 6,125 206 253 0
2019-10-14 08:30:56 GMT 51.258434 -0.465775 6,125 206 253 0
2019-10-14 08:30:53 GMT 51.261368 -0.463486 6,125 206 253 0
2019-10-14 08:30:50 GMT 51.264301 -0.461197 6,125 206 253 0
2019-10-14 08:30:47 GMT 51.270447 -0.456452 6,125 206 254 0
2019-10-14 08:30:44 GMT 51.270447 -0.456452 6,125 206 254 0
2019-10-14 08:30:41 GMT 51.273613 -0.454025 6,125 206 253 0
2019-10-14 08:30:38 GMT 51.277176 -0.451256 6,125 206 254 0
2019-10-14 08:30:35 GMT 51.280361 -0.448761 6,125 206 254 0
2019-10-14 08:30:32 GMT 51.284821 -0.445317 6,125 206 254 0
2019-10-14 08:30:28 GMT 51.289902 -0.441383 6,125 206 254 0
2019-10-14 08:30:25 GMT 51.291348 -0.440292 6,125 206 254 0
2019-10-14 08:30:22 GMT 51.294327 -0.438004 6,125 206 254 0
2019-10-14 08:30:18 GMT 51.298325 -0.434851 6,125 206 253 0
2019-10-14 08:30:15 GMT 51.301300 -0.432550 6,125 206 253 0
2019-10-14 08:30:12 GMT 51.305313 -0.429459 6,125 206 253 0
2019-10-14 08:30:09 GMT 51.307617 -0.427650 6,125 206 253 0
2019-10-14 08:30:06 GMT 51.310341 -0.425568 6,125 207 252 64
2019-10-14 08:30:03 GMT 51.313934 -0.422825 6,125 206 252 64
2019-10-14 08:30:00 GMT 51.320442 -0.417786 6,075 207 250 256
2019-10-14 08:29:57 GMT 51.320442 -0.417786 6,125 206 252 64
2019-10-14 08:29:54 GMT 51.323593 -0.415328 6,100 206 252 64
2019-10-14 08:29:51 GMT 51.326065 -0.413323 6,100 206 251 64
2019-10-14 08:29:48 GMT 51.330688 -0.409760 6,100 207 250 256
2019-10-14 08:29:45 GMT 51.332966 -0.408020 5,950 207 255 3776
2019-10-14 08:29:41 GMT 51.337574 -0.404434 6,100 207 250 192
2019-10-14 08:29:38 GMT 51.340714 -0.401966 6,075 207 250 960
2019-10-14 08:29:35 GMT 51.343597 -0.399739 6,050 206 250 832
2019-10-14 08:29:31 GMT 51.350887 -0.394058 6,025 207 248 1856
2019-10-14 08:29:28 GMT 51.350887 -0.394058 5,900 207 250 1152
2019-10-14 08:29:25 GMT 51.354195 -0.391464 5,925 207 248 1920
2019-10-14 08:29:21 GMT 51.358803 -0.387878 5,825 207 249 1664
2019-10-14 08:29:18 GMT 51.360851 -0.386276 5,675 207 250 2688
2019-10-14 08:29:15 GMT 51.364155 -0.383682 5,625 207 249 2432
2019-10-14 08:29:12 GMT 51.366623 -0.381699 5,600 206 257 3712
2019-10-14 08:29:09 GMT 51.370560 -0.378583 5,500 207 250 2688
2019-10-14 08:29:06 GMT 51.375137 -0.374946 4,275 177 251 2496
2019-10-14 08:29:03 GMT 51.375961 -0.374277 5,200 207 253 3392
2019-10-14 08:29:00 GMT 51.379566 -0.371475 4,775 207 256 3776
2019-10-14 08:28:57 GMT 51.382278 -0.369304 4,850 206 256 3776
2019-10-14 08:28:54 GMT 51.385525 -0.366821 4,725 206 258 3776
2019-10-14 08:28:49 GMT 51.394928 -0.361176 3,950 194 258 2944
2019-10-14 08:28:43 GMT 51.398186 -0.360184 4,125 190 256 2816
2019-10-14 08:28:40 GMT 51.402191 -0.359728 2,775 161 219 1472
2019-10-14 08:28:37 GMT 51.406612 -0.359955 3,700 164 243 2240
2019-10-14 08:28:33 GMT 51.410244 -0.360718 3,550 166 245 2304
2019-10-14 08:28:30 GMT 51.413177 -0.361658 3,375 162 234 1664
2019-10-14 08:28:27 GMT 51.416199 -0.363068 3,225 162 240 2240
2019-10-14 08:28:24 GMT 51.424023 -0.367050 2,950 162 239 2112
2019-10-14 08:28:21 GMT 51.424023 -0.367050 3,100 162 237 1920
2019-10-14 08:28:18 GMT 51.426491 -0.368347 2,850 162 232 1536
2019-10-14 08:28:14 GMT 51.430389 -0.370269 2,825 162 227 1600
2019-10-14 08:28:11 GMT 51.433640 -0.371902 2,825 163 225 1664
2019-10-14 08:28:08 GMT 51.437012 -0.373535 2,650 161 219 1472
2019-10-14 08:28:04 GMT 51.440456 -0.375366 2,625 147 204 1216
2019-10-14 08:28:01 GMT 51.442738 -0.376663 2,450 147 204 1216
2019-10-14 08:27:57 GMT 51.446274 -0.379257 2,500 151 206 1024
2019-10-14 08:27:54 GMT 51.448975 -0.381998 2,425 140 199 1216
2019-10-14 08:27:51 GMT 51.451347 -0.385208 2,375 129 192 1024
2019-10-14 08:27:47 GMT 51.453644 -0.389272 1,600 103 162 3328
2019-10-14 08:27:43 GMT 51.455772 -0.393982 2,225 124 186 1152
2019-10-14 08:27:39 GMT 51.457581 -0.398329 2,125 122 180 1280
2019-10-14 08:27:36 GMT 51.460285 -0.405197 2,075 115 169 1344
2019-10-14 08:27:32 GMT 51.460285 -0.405197 2,025 120 174 1280
2019-10-14 08:27:29 GMT 51.461544 -0.408707 1,900 114 167 1408
2019-10-14 08:27:26 GMT 51.462524 -0.412136 1,750 109 164 2048
2019-10-14 08:27:22 GMT 51.464432 -0.421066 1,725 103 162 3328
2019-10-14 08:27:19 GMT 51.464432 -0.421066 1,625 103 162 3328
2019-10-14 08:27:16 GMT 51.464859 -0.424161 1,525 101 163 3456
2019-10-14 08:27:13 GMT 51.465176 -0.428238 1,275 88 172 2944
2019-10-14 08:27:06 GMT 51.465134 -0.436484 950 87 171 3072
2019-10-14 08:27:01 GMT 51.465042 -0.442125 725 89 173 2432
2019-10-14 08:26:57 GMT 51.464996 -0.447693 500 89 172 2240
2019-10-14 08:26:52 GMT 51.464951 -0.453854 325 89 172 1536
2019-10-14 08:26:42 GMT 51.464859 -0.465898 0 90 150
2019-10-14 08:26:32 GMT 51.464825 -0.475445 0 90 115
2019-10-14 08:26:23 GMT 51.464802 -0.481988 0 90 72
2019-10-14 08:26:19 GMT 51.464802 -0.483714 0 90 12
2019-10-14 08:26:10 GMT 51.464802 -0.486071 0 90 15
2019-10-14 08:25:57 GMT 51.464790 -0.486813 0 95 6
2019-10-14 08:25:50 GMT 51.464813 -0.487156 0 106 8
2019-10-14 08:25:31 GMT 51.465244 -0.487843 0 163 8
2019-10-14 08:25:28 GMT 51.465347 -0.487881 0 191 7
2019-10-14 08:25:15 GMT 51.465710 -0.487843 0 180 8
2019-10-14 08:25:07 GMT 51.465855 -0.487760 0 194 5
2019-10-14 08:24:56 GMT 51.465958 -0.487704 0 199 2
2019-10-14 08:24:41 GMT 51.466164 -0.487593 0 196 4
2019-10-14 08:24:36 GMT 51.466255 -0.487537 0 191 5
2019-10-14 08:24:25 GMT 51.466530 -0.487481 0 180 6
2019-10-14 08:24:19 GMT 51.466709 -0.487480 0 180 8
2019-10-14 08:24:14 GMT 51.466862 -0.487480 0 174 8
2019-10-14 08:24:04 GMT 51.467148 -0.487463 0 210 5
2019-10-14 08:23:57 GMT 51.467262 -0.487388 0 230 4
2019-10-14 08:23:54 GMT 51.467319 -0.487333 0 239 4
2019-10-14 08:23:27 GMT 51.467411 -0.487036 0 270 0
2019-10-14 08:23:23 GMT 51.467422 -0.487022 0 270 0
2019-10-14 08:23:12 GMT 51.467434 -0.487022 0 270 0
2019-10-14 08:23:07 GMT 51.467434 -0.486965 0 270 2
2019-10-14 08:23:00 GMT 51.467434 -0.486887 0 270 3
2019-10-14 08:22:52 GMT 51.467434 -0.486755 0 270 2
2019-10-14 08:22:38 GMT 51.467434 -0.486584 0 270 2
2019-10-14 08:22:30 GMT 51.467434 -0.486423 0 270 4
2019-10-14 08:22:20 GMT 51.467434 -0.486126 0 270 5
2019-10-14 08:22:05 GMT 51.467434 -0.485668 0 270 3
2019-10-14 08:21:56 GMT 51.467422 -0.485421 0 270 4
2019-10-14 08:21:49 GMT 51.467434 -0.485254 0 270 5
2019-10-14 08:21:39 GMT 51.467434 -0.484791 0 270 7
2019-10-14 08:21:30 GMT 51.467445 -0.484352 0 270 6
2019-10-14 08:21:13 GMT 51.467445 -0.483685 0 270 6
2019-10-14 08:21:10 GMT 51.467445 -0.483608 0 270 5
2019-10-14 08:21:04 GMT 51.467445 -0.483418 0 270 4
2019-10-14 08:20:55 GMT 51.467445 -0.483213 0 270 3
2019-10-14 08:20:45 GMT 51.467445 -0.482769 0 270 7
2019-10-14 08:20:34 GMT 51.467445 -0.482273 0 270 6
2019-10-14 08:20:22 GMT 51.467445 -0.481758 0 270 6
2019-10-14 08:20:13 GMT 51.467457 -0.481434 0 270 5
2019-10-14 08:20:00 GMT 51.467457 -0.481153 0 270 2
2019-10-14 08:19:44 GMT 51.467457 -0.481079 0 270 0
2019-10-14 08:19:24 GMT 51.467468 -0.481071 0 270 0
2019-10-14 08:19:19 GMT 51.467468 -0.481079 0 270 0
2019-10-14 08:19:09 GMT 51.467457 -0.481079 0 270 0
2019-10-14 08:18:59 GMT 51.467468 -0.481071 0 270 0
2019-10-14 08:18:49 GMT 51.467457 -0.481060 0 270 0
2019-10-14 08:18:38 GMT 51.467457 -0.481079 0 270 0
2019-10-14 08:17:49 GMT 51.467457 -0.481071 0 270 0
2019-10-14 08:17:14 GMT 51.467445 -0.481079 0 270 0
2019-10-14 08:17:04 GMT 51.467445 -0.481091 0 270 0
2019-10-14 08:16:59 GMT 51.467445 -0.481079 0 270 0
2019-10-14 08:16:49 GMT 51.467445 -0.481091 0 270 0
2019-10-14 08:16:34 GMT 51.467457 -0.481091 0 270 0
2019-10-14 08:16:03 GMT 51.467445 -0.481091 0 270 0
2019-10-14 08:15:59 GMT 51.467445 -0.481079 0 270 0
2019-10-14 08:15:48 GMT 51.467445 -0.481091 0 270 0
2019-10-14 08:15:34 GMT 51.467445 -0.481079 0 270 0
2019-10-14 08:15:29 GMT 51.467457 -0.481079 0 270 0
2019-10-14 08:14:58 GMT 51.467445 -0.481079 0 270 0
2019-10-14 08:14:50 GMT 51.467457 -0.481079 0 270 0
2019-10-14 08:14:46 GMT 51.467457 -0.481091 0 270 0
2019-10-14 08:14:37 GMT 51.467445 -0.481091 0 270 0
2019-10-14 08:14:26 GMT 51.467457 -0.480893 0 270 5
2019-10-14 08:14:15 GMT 51.467457 -0.480595 0 270 4
2019-10-14 08:14:12 GMT 51.467445 -0.480522 0 270 4
2019-10-14 08:14:05 GMT 51.467445 -0.480355 0 270 3
2019-10-14 08:13:53 GMT 51.467445 -0.479891 0 270 7
2019-10-14 08:13:45 GMT 51.467445 -0.479594 0 264 5
2019-10-14 08:13:40 GMT 51.467445 -0.479393 0 261 6
2019-10-14 08:13:27 GMT 51.467640 -0.478722 0 196 10
2019-10-14 08:13:21 GMT 51.467926 -0.478685 0 180 12
2019-10-14 08:13:09 GMT 51.468590 -0.478685 0 180 16
2019-10-14 08:12:59 GMT 51.469296 -0.478687 0 180 15
2019-10-14 08:12:47 GMT 51.470039 -0.478706 0 180 14
2019-10-14 08:12:38 GMT 51.470547 -0.478703 0 180 13
2019-10-14 08:12:32 GMT 51.470924 -0.478722 0 180 12
2019-10-14 08:12:20 GMT 51.471504 -0.478725 0 180 11
2019-10-14 08:12:11 GMT 51.471920 -0.478722 0 180 10
2019-10-14 08:12:02 GMT 51.472252 -0.478722 0 180 9
2019-10-14 08:11:53 GMT 51.472576 -0.478725 0 180 7
2019-10-14 08:11:42 GMT 51.472870 -0.478745 0 180 6
2019-10-14 08:11:31 GMT 51.473099 -0.478745 0 180 4
2019-10-14 08:10:27 GMT 51.473339 -0.478740 0 180 0
2019-10-14 08:10:07 GMT 51.473347 -0.478725 0 180 0
2019-10-14 08:09:02 GMT 51.473328 -0.478740 0 180 0
2019-10-14 08:08:57 GMT 51.473339 -0.478740 0 180 0
2019-10-14 08:08:42 GMT 51.473320 -0.478745 0 180 0
2019-10-14 08:08:22 GMT 51.473328 -0.478759 0 180 0
2019-10-14 08:08:12 GMT 51.473320 -0.478764 0 180 0
2019-10-14 08:07:52 GMT 51.473316 -0.478777 0 180 0
2019-10-14 08:07:42 GMT 51.473320 -0.478783 0 180 0
2019-10-14 08:07:32 GMT 51.473331 -0.478783 0 180 0
2019-10-14 08:07:12 GMT 51.473328 -0.478777 0 180 0
2019-10-14 08:06:21 GMT 51.473320 -0.478764 0 180 0
2019-10-14 08:06:06 GMT 51.473328 -0.478740 0 180 0
2019-10-14 08:05:46 GMT 51.473316 -0.478740 0 180 0
2019-10-14 08:05:26 GMT 51.473320 -0.478745 0 180 0
2019-10-14 08:05:16 GMT 51.473331 -0.478725 0 180 0
2019-10-14 08:04:01 GMT 51.473362 -0.478722 0 180 0
2019-10-14 08:03:01 GMT 51.473351 -0.478722 0 180 0
2019-10-14 08:02:52 GMT 51.473351 -0.478740 0 180 0
2019-10-14 08:02:26 GMT 51.473347 -0.478745 0 180 0
2019-10-14 08:01:26 GMT 51.473339 -0.478740 0 180 0
2019-10-14 08:00:57 GMT 51.473328 -0.478759 0 180 0
2019-10-14 08:00:47 GMT 51.473331 -0.478764 0 180 0
2019-10-14 08:00:37 GMT 51.473339 -0.478759 0 180 0
2019-10-14 08:00:22 GMT 51.473347 -0.478764 0 180 0
2019-10-14 07:59:52 GMT 51.473328 -0.478777 0 180 0
2019-10-14 07:59:37 GMT 51.473320 -0.478764 0 180 0
2019-10-14 07:58:58 GMT 51.473339 -0.478759 0 180 0
2019-10-14 07:58:53 GMT 51.473331 -0.478745 0 180 0
2019-10-14 07:58:38 GMT 51.473339 -0.478740 0 180 0
2019-10-14 07:58:28 GMT 51.473339 -0.478759 0 180 0
2019-10-14 07:58:23 GMT 51.473331 -0.478745 0 180 0
2019-10-14 07:58:07 GMT 51.473347 -0.478745 0 180 0
2019-10-14 07:57:37 GMT 51.473320 -0.478745 0 180 0
2019-10-14 07:56:58 GMT 51.473331 -0.478783 0 180 0
2019-10-14 07:56:48 GMT 51.473328 -0.478777 0 180 0
2019-10-14 07:55:37 GMT 51.473331 -0.478745 0 180 0
2019-10-14 07:55:28 GMT 51.473339 -0.478759 0 180 0
2019-10-14 07:55:08 GMT 51.473331 -0.478745 0 180 0
2019-10-14 07:54:52 GMT 51.473328 -0.478740 0 180 0
2019-10-14 07:54:32 GMT 51.473331 -0.478725 0 180 0
2019-10-14 07:54:22 GMT 51.473331 -0.478706 0 180 0
2019-10-14 07:54:07 GMT 51.473339 -0.478722 0 180 0
2019-10-14 07:53:47 GMT 51.473328 -0.478722 0 180 0
2019-10-14 07:53:02 GMT 51.473331 -0.478725 0 180 0
2019-10-14 07:52:47 GMT 51.473328 -0.478740 0 180 0
2019-10-14 07:52:22 GMT 51.473328 -0.478740 0 180 0
2019-10-14 07:52:12 GMT 51.473347 -0.478745 0 180 0
2019-10-14 07:52:02 GMT 51.473351 -0.478740 0 180 0
2019-10-14 07:51:38 GMT 51.473354 -0.478764 0 180 0
2019-10-14 07:51:33 GMT 51.473362 -0.478759 0 180 0
2019-10-14 07:51:28 GMT 51.473354 -0.478764 0 180 0
2019-10-14 07:51:18 GMT 51.473351 -0.478759 0 180 0
2019-10-14 07:50:53 GMT 51.473354 -0.478764 0 180 0
2019-10-14 07:50:48 GMT 51.473362 -0.478759 0 180 0
2019-10-14 07:49:53 GMT 51.473347 -0.478745 0 180 0
2019-10-14 07:49:44 GMT 51.473339 -0.478740 0 180 0
2019-10-14 07:49:30 GMT 51.473331 -0.478745 0 180 0
2019-10-14 07:49:20 GMT 51.473328 -0.478740 0 180 0
2019-10-14 07:49:10 GMT 51.473263 -0.478764 0 182 2
2019-10-14 07:48:59 GMT 51.473217 -0.478687 0 171 2
2019-10-14 07:48:49 GMT 51.473179 -0.478536 0 146 3
2019-10-14 07:48:38 GMT 51.473125 -0.478344 0 129 3
2019-10-14 07:48:28 GMT 51.473110 -0.478184 0 115 3
2019-10-14 07:48:18 GMT 51.473122 -0.477998 0 101 3
2019-10-14 07:48:06 GMT 51.473137 -0.477791 0 90 3
2019-10-14 07:47:56 GMT 51.473145 -0.477627 0 87 3
2019-10-14 07:47:46 GMT 51.473145 -0.477423 0 87 3
2019-10-14 07:47:11 GMT 51.473125 -0.476875 0 90 0

Making use of Plane Finder data

You are free to use the raw flight data, aircraft information and images provided in this report for your own purposes provided the data is correctly attributed to Plane Finder. We ask that you please credit Plane Finder and link to planefinder.net in close proximity to the content.

Optionally one of the following logos (no smaller then 150x24px) can be used and must link to planefinder.net

Embedding the Plane Finder map

You are welcome to embed the Plane Finder playback map on your website to offer visitors a more interactive experience. We suggest using the following HTML code:

<iframe src="//planefinder.net/data/report/BA548-G-EUXI-7700-squawk-2019-10-14/map" width="800" height="600" seamless="seamless"></iframe>

Where our data comes from

Plane Finder has a global network of data feeds and antenna radars that receive data broadcast directly from aircraft. The primary technologies used are ADS-B and MLAT. We also show feeds from the FAA and a FLARM glider feed.

Click here to find out more about the Plane Finder network.

How we collect our data